<?xml version="1.0" encoding="UTF-8" standalone="no" ?>
<gpx xmlns="http://www.topografix.com/GPX/1/1" xmlns:xsi="http://www.w3.org/2001/XMLSchema-instance" xsi:schemaLocation="http://www.topografix.com/GPX/1/1 http://www.topografix.com/GPX/1/1/gpx.xsd" version="1.1" creator="VisuGPX - https://www.visugpx.com">
  <metadata>
    <name>110k880d_2019-06</name>
  </metadata>
  <trk>
    <name><![CDATA[110k880d]]></name>
    <extensions>
      <line xmlns="http://www.topografix.com/GPX/gpx_style/0/2">
        <width>4</width>
      </line>
    </extensions>
    <trkseg>
      <trkpt lat="43.88275" lon="0.98725">
        <ele>123</ele>
        <time>2020-12-26T19:23:47.000Z</time>
      </trkpt>
      <trkpt lat="43.883" lon="0.9872">
        <ele>125</ele>
        <time>2020-12-26T19:23:51.000Z</time>
      </trkpt>
      <trkpt lat="43.88296" lon="0.98464">
        <ele>121</ele>
        <time>2020-12-26T19:24:24.000Z</time>
      </trkpt>
      <trkpt lat="43.88276" lon="0.98475">
        <ele>121</ele>
        <time>2020-12-26T19:24:28.000Z</time>
      </trkpt>
      <trkpt lat="43.88232" lon="0.98511">
        <ele>119</ele>
        <time>2020-12-26T19:24:37.000Z</time>
      </trkpt>
      <trkpt lat="43.88217" lon="0.98521">
        <ele>119</ele>
        <time>2020-12-26T19:24:40.000Z</time>
      </trkpt>
      <trkpt lat="43.88156" lon="0.98581">
        <ele>115</ele>
        <time>2020-12-26T19:24:54.000Z</time>
      </trkpt>
      <trkpt lat="43.88097" lon="0.98649">
        <ele>112</ele>
        <time>2020-12-26T19:25:07.000Z</time>
      </trkpt>
      <trkpt lat="43.88063" lon="0.9869">
        <ele>111</ele>
        <time>2020-12-26T19:25:15.000Z</time>
      </trkpt>
      <trkpt lat="43.87989" lon="0.98802">
        <ele>109</ele>
        <time>2020-12-26T19:25:35.000Z</time>
      </trkpt>
      <trkpt lat="43.8797" lon="0.98843">
        <ele>108</ele>
        <time>2020-12-26T19:25:41.000Z</time>
      </trkpt>
      <trkpt lat="43.87969" lon="0.98862">
        <ele>108</ele>
        <time>2020-12-26T19:25:43.000Z</time>
      </trkpt>
      <trkpt lat="43.87974" lon="0.98881">
        <ele>108</ele>
        <time>2020-12-26T19:25:46.000Z</time>
      </trkpt>
      <trkpt lat="43.88003" lon="0.98951">
        <ele>109</ele>
        <time>2020-12-26T19:25:56.000Z</time>
      </trkpt>
      <trkpt lat="43.88012" lon="0.98989">
        <ele>108</ele>
        <time>2020-12-26T19:26:01.000Z</time>
      </trkpt>
      <trkpt lat="43.88013" lon="0.9901">
        <ele>108</ele>
        <time>2020-12-26T19:26:04.000Z</time>
      </trkpt>
      <trkpt lat="43.88006" lon="0.99017">
        <ele>108</ele>
        <time>2020-12-26T19:26:06.000Z</time>
      </trkpt>
      <trkpt lat="43.88006" lon="0.99021">
        <ele>108</ele>
        <time>2020-12-26T19:26:06.000Z</time>
      </trkpt>
      <trkpt lat="43.88009" lon="0.99031">
        <ele>108</ele>
        <time>2020-12-26T19:26:08.000Z</time>
      </trkpt>
      <trkpt lat="43.87985" lon="0.99092">
        <ele>106</ele>
        <time>2020-12-26T19:26:16.000Z</time>
      </trkpt>
      <trkpt lat="43.8798" lon="0.9909">
        <ele>106</ele>
        <time>2020-12-26T19:26:17.000Z</time>
      </trkpt>
      <trkpt lat="43.87976" lon="0.9909">
        <ele>106</ele>
        <time>2020-12-26T19:26:18.000Z</time>
      </trkpt>
      <trkpt lat="43.87971" lon="0.99092">
        <ele>106</ele>
        <time>2020-12-26T19:26:19.000Z</time>
      </trkpt>
      <trkpt lat="43.87968" lon="0.99097">
        <ele>105</ele>
        <time>2020-12-26T19:26:20.000Z</time>
      </trkpt>
      <trkpt lat="43.87966" lon="0.99103">
        <ele>105</ele>
        <time>2020-12-26T19:26:21.000Z</time>
      </trkpt>
      <trkpt lat="43.87966" lon="0.9911">
        <ele>105</ele>
        <time>2020-12-26T19:26:22.000Z</time>
      </trkpt>
      <trkpt lat="43.87968" lon="0.99116">
        <ele>105</ele>
        <time>2020-12-26T19:26:22.000Z</time>
      </trkpt>
      <trkpt lat="43.87974" lon="0.99122">
        <ele>105</ele>
        <time>2020-12-26T19:26:24.000Z</time>
      </trkpt>
      <trkpt lat="43.87936" lon="0.99228">
        <ele>104</ele>
        <time>2020-12-26T19:26:39.000Z</time>
      </trkpt>
      <trkpt lat="43.87847" lon="0.99495">
        <ele>104</ele>
        <time>2020-12-26T19:27:17.000Z</time>
      </trkpt>
      <trkpt lat="43.87839" lon="0.99494">
        <ele>104</ele>
        <time>2020-12-26T19:27:18.000Z</time>
      </trkpt>
      <trkpt lat="43.8783" lon="0.99498">
        <ele>104</ele>
        <time>2020-12-26T19:27:20.000Z</time>
      </trkpt>
      <trkpt lat="43.87676" lon="0.99625">
        <ele>105</ele>
        <time>2020-12-26T19:27:52.000Z</time>
      </trkpt>
      <trkpt lat="43.87614" lon="0.99498">
        <ele>103</ele>
        <time>2020-12-26T19:28:11.000Z</time>
      </trkpt>
      <trkpt lat="43.87588" lon="0.99452">
        <ele>103</ele>
        <time>2020-12-26T19:28:19.000Z</time>
      </trkpt>
      <trkpt lat="43.87547" lon="0.99412">
        <ele>104</ele>
        <time>2020-12-26T19:28:28.000Z</time>
      </trkpt>
      <trkpt lat="43.87425" lon="0.9933">
        <ele>106</ele>
        <time>2020-12-26T19:28:52.000Z</time>
      </trkpt>
      <trkpt lat="43.87383" lon="0.99285">
        <ele>104</ele>
        <time>2020-12-26T19:29:01.000Z</time>
      </trkpt>
      <trkpt lat="43.87346" lon="0.99226">
        <ele>102</ele>
        <time>2020-12-26T19:29:11.000Z</time>
      </trkpt>
      <trkpt lat="43.87307" lon="0.99147">
        <ele>103</ele>
        <time>2020-12-26T19:29:24.000Z</time>
      </trkpt>
      <trkpt lat="43.87249" lon="0.99023">
        <ele>104</ele>
        <time>2020-12-26T19:29:43.000Z</time>
      </trkpt>
      <trkpt lat="43.8722" lon="0.98951">
        <ele>103</ele>
        <time>2020-12-26T19:29:53.000Z</time>
      </trkpt>
      <trkpt lat="43.87162" lon="0.98793">
        <ele>103</ele>
        <time>2020-12-26T19:30:16.000Z</time>
      </trkpt>
      <trkpt lat="43.87123" lon="0.98652">
        <ele>105</ele>
        <time>2020-12-26T19:30:35.000Z</time>
      </trkpt>
      <trkpt lat="43.87094" lon="0.98513">
        <ele>105</ele>
        <time>2020-12-26T19:30:54.000Z</time>
      </trkpt>
      <trkpt lat="43.87076" lon="0.9842">
        <ele>106</ele>
        <time>2020-12-26T19:31:06.000Z</time>
      </trkpt>
      <trkpt lat="43.87064" lon="0.9838">
        <ele>106</ele>
        <time>2020-12-26T19:31:12.000Z</time>
      </trkpt>
      <trkpt lat="43.87045" lon="0.98345">
        <ele>105</ele>
        <time>2020-12-26T19:31:17.000Z</time>
      </trkpt>
      <trkpt lat="43.86986" lon="0.98279">
        <ele>105</ele>
        <time>2020-12-26T19:31:31.000Z</time>
      </trkpt>
      <trkpt lat="43.86959" lon="0.98256">
        <ele>106</ele>
        <time>2020-12-26T19:31:37.000Z</time>
      </trkpt>
      <trkpt lat="43.869" lon="0.9823">
        <ele>107</ele>
        <time>2020-12-26T19:31:48.000Z</time>
      </trkpt>
      <trkpt lat="43.8687" lon="0.98207">
        <ele>107</ele>
        <time>2020-12-26T19:31:54.000Z</time>
      </trkpt>
      <trkpt lat="43.86834" lon="0.98156">
        <ele>109</ele>
        <time>2020-12-26T19:32:03.000Z</time>
      </trkpt>
      <trkpt lat="43.86781" lon="0.98065">
        <ele>110</ele>
        <time>2020-12-26T19:32:18.000Z</time>
      </trkpt>
      <trkpt lat="43.86722" lon="0.97946">
        <ele>110</ele>
        <time>2020-12-26T19:32:36.000Z</time>
      </trkpt>
      <trkpt lat="43.86678" lon="0.97836">
        <ele>109</ele>
        <time>2020-12-26T19:32:52.000Z</time>
      </trkpt>
      <trkpt lat="43.86637" lon="0.97753">
        <ele>108</ele>
        <time>2020-12-26T19:33:05.000Z</time>
      </trkpt>
      <trkpt lat="43.86617" lon="0.97706">
        <ele>108</ele>
        <time>2020-12-26T19:33:12.000Z</time>
      </trkpt>
      <trkpt lat="43.86568" lon="0.97582">
        <ele>108</ele>
        <time>2020-12-26T19:33:31.000Z</time>
      </trkpt>
      <trkpt lat="43.86519" lon="0.97451">
        <ele>109</ele>
        <time>2020-12-26T19:33:49.000Z</time>
      </trkpt>
      <trkpt lat="43.86453" lon="0.97214">
        <ele>107</ele>
        <time>2020-12-26T19:34:22.000Z</time>
      </trkpt>
      <trkpt lat="43.86436" lon="0.97168">
        <ele>107</ele>
        <time>2020-12-26T19:34:29.000Z</time>
      </trkpt>
      <trkpt lat="43.86409" lon="0.97116">
        <ele>108</ele>
        <time>2020-12-26T19:34:37.000Z</time>
      </trkpt>
      <trkpt lat="43.8637" lon="0.9706">
        <ele>108</ele>
        <time>2020-12-26T19:34:47.000Z</time>
      </trkpt>
      <trkpt lat="43.86321" lon="0.96995">
        <ele>108</ele>
        <time>2020-12-26T19:34:59.000Z</time>
      </trkpt>
      <trkpt lat="43.86275" lon="0.96945">
        <ele>108</ele>
        <time>2020-12-26T19:35:09.000Z</time>
      </trkpt>
      <trkpt lat="43.86248" lon="0.96921">
        <ele>108</ele>
        <time>2020-12-26T19:35:15.000Z</time>
      </trkpt>
      <trkpt lat="43.8623" lon="0.96908">
        <ele>108</ele>
        <time>2020-12-26T19:35:19.000Z</time>
      </trkpt>
      <trkpt lat="43.86145" lon="0.96871">
        <ele>111</ele>
        <time>2020-12-26T19:35:35.000Z</time>
      </trkpt>
      <trkpt lat="43.86125" lon="0.96859">
        <ele>112</ele>
        <time>2020-12-26T19:35:38.000Z</time>
      </trkpt>
      <trkpt lat="43.86101" lon="0.96837">
        <ele>113</ele>
        <time>2020-12-26T19:35:43.000Z</time>
      </trkpt>
      <trkpt lat="43.86075" lon="0.96805">
        <ele>113</ele>
        <time>2020-12-26T19:35:50.000Z</time>
      </trkpt>
      <trkpt lat="43.85979" lon="0.96653">
        <ele>112</ele>
        <time>2020-12-26T19:36:16.000Z</time>
      </trkpt>
      <trkpt lat="43.85961" lon="0.96631">
        <ele>112</ele>
        <time>2020-12-26T19:36:20.000Z</time>
      </trkpt>
      <trkpt lat="43.8592" lon="0.96551">
        <ele>111</ele>
        <time>2020-12-26T19:36:32.000Z</time>
      </trkpt>
      <trkpt lat="43.85849" lon="0.96443">
        <ele>113</ele>
        <time>2020-12-26T19:36:51.000Z</time>
      </trkpt>
      <trkpt lat="43.8577" lon="0.96341">
        <ele>114</ele>
        <time>2020-12-26T19:37:10.000Z</time>
      </trkpt>
      <trkpt lat="43.85715" lon="0.96265">
        <ele>115</ele>
        <time>2020-12-26T19:37:24.000Z</time>
      </trkpt>
      <trkpt lat="43.85688" lon="0.96215">
        <ele>116</ele>
        <time>2020-12-26T19:37:32.000Z</time>
      </trkpt>
      <trkpt lat="43.85671" lon="0.96181">
        <ele>117</ele>
        <time>2020-12-26T19:37:38.000Z</time>
      </trkpt>
      <trkpt lat="43.85635" lon="0.96095">
        <ele>115</ele>
        <time>2020-12-26T19:37:50.000Z</time>
      </trkpt>
      <trkpt lat="43.85559" lon="0.95906">
        <ele>110</ele>
        <time>2020-12-26T19:38:18.000Z</time>
      </trkpt>
      <trkpt lat="43.85546" lon="0.95886">
        <ele>110</ele>
        <time>2020-12-26T19:38:22.000Z</time>
      </trkpt>
      <trkpt lat="43.85529" lon="0.95869">
        <ele>111</ele>
        <time>2020-12-26T19:38:25.000Z</time>
      </trkpt>
      <trkpt lat="43.85419" lon="0.95796">
        <ele>111</ele>
        <time>2020-12-26T19:38:47.000Z</time>
      </trkpt>
      <trkpt lat="43.85406" lon="0.95785">
        <ele>111</ele>
        <time>2020-12-26T19:38:50.000Z</time>
      </trkpt>
      <trkpt lat="43.85385" lon="0.95757">
        <ele>109</ele>
        <time>2020-12-26T19:38:55.000Z</time>
      </trkpt>
      <trkpt lat="43.85347" lon="0.95678">
        <ele>108</ele>
        <time>2020-12-26T19:39:07.000Z</time>
      </trkpt>
      <trkpt lat="43.8533" lon="0.95645">
        <ele>108</ele>
        <time>2020-12-26T19:39:12.000Z</time>
      </trkpt>
      <trkpt lat="43.85314" lon="0.95624">
        <ele>108</ele>
        <time>2020-12-26T19:39:16.000Z</time>
      </trkpt>
      <trkpt lat="43.85296" lon="0.9561">
        <ele>109</ele>
        <time>2020-12-26T19:39:20.000Z</time>
      </trkpt>
      <trkpt lat="43.8512" lon="0.95506">
        <ele>112</ele>
        <time>2020-12-26T19:39:54.000Z</time>
      </trkpt>
      <trkpt lat="43.85046" lon="0.95476">
        <ele>114</ele>
        <time>2020-12-26T19:40:08.000Z</time>
      </trkpt>
      <trkpt lat="43.84944" lon="0.95427">
        <ele>115</ele>
        <time>2020-12-26T19:40:27.000Z</time>
      </trkpt>
      <trkpt lat="43.84864" lon="0.95372">
        <ele>114</ele>
        <time>2020-12-26T19:40:43.000Z</time>
      </trkpt>
      <trkpt lat="43.84831" lon="0.95345">
        <ele>115</ele>
        <time>2020-12-26T19:40:50.000Z</time>
      </trkpt>
      <trkpt lat="43.84734" lon="0.95247">
        <ele>116</ele>
        <time>2020-12-26T19:41:11.000Z</time>
      </trkpt>
      <trkpt lat="43.84676" lon="0.95181">
        <ele>117</ele>
        <time>2020-12-26T19:41:24.000Z</time>
      </trkpt>
      <trkpt lat="43.84478" lon="0.94978">
        <ele>116</ele>
        <time>2020-12-26T19:42:08.000Z</time>
      </trkpt>
      <trkpt lat="43.84435" lon="0.94929">
        <ele>115</ele>
        <time>2020-12-26T19:42:18.000Z</time>
      </trkpt>
      <trkpt lat="43.84422" lon="0.94907">
        <ele>115</ele>
        <time>2020-12-26T19:42:22.000Z</time>
      </trkpt>
      <trkpt lat="43.84385" lon="0.94825">
        <ele>115</ele>
        <time>2020-12-26T19:42:34.000Z</time>
      </trkpt>
      <trkpt lat="43.8437" lon="0.94797">
        <ele>115</ele>
        <time>2020-12-26T19:42:38.000Z</time>
      </trkpt>
      <trkpt lat="43.84315" lon="0.94716">
        <ele>115</ele>
        <time>2020-12-26T19:42:53.000Z</time>
      </trkpt>
      <trkpt lat="43.84273" lon="0.94671">
        <ele>117</ele>
        <time>2020-12-26T19:43:02.000Z</time>
      </trkpt>
      <trkpt lat="43.84229" lon="0.9462">
        <ele>116</ele>
        <time>2020-12-26T19:43:12.000Z</time>
      </trkpt>
      <trkpt lat="43.84163" lon="0.94533">
        <ele>117</ele>
        <time>2020-12-26T19:43:29.000Z</time>
      </trkpt>
      <trkpt lat="43.84098" lon="0.94443">
        <ele>115</ele>
        <time>2020-12-26T19:43:45.000Z</time>
      </trkpt>
      <trkpt lat="43.84041" lon="0.94359">
        <ele>118</ele>
        <time>2020-12-26T19:44:00.000Z</time>
      </trkpt>
      <trkpt lat="43.84004" lon="0.94316">
        <ele>120</ele>
        <time>2020-12-26T19:44:08.000Z</time>
      </trkpt>
      <trkpt lat="43.83964" lon="0.94278">
        <ele>120</ele>
        <time>2020-12-26T19:44:17.000Z</time>
      </trkpt>
      <trkpt lat="43.83917" lon="0.94227">
        <ele>118</ele>
        <time>2020-12-26T19:44:28.000Z</time>
      </trkpt>
      <trkpt lat="43.83868" lon="0.94162">
        <ele>117</ele>
        <time>2020-12-26T19:44:40.000Z</time>
      </trkpt>
      <trkpt lat="43.83847" lon="0.94137">
        <ele>117</ele>
        <time>2020-12-26T19:44:45.000Z</time>
      </trkpt>
      <trkpt lat="43.83783" lon="0.94053">
        <ele>114</ele>
        <time>2020-12-26T19:45:00.000Z</time>
      </trkpt>
      <trkpt lat="43.83768" lon="0.94036">
        <ele>114</ele>
        <time>2020-12-26T19:45:04.000Z</time>
      </trkpt>
      <trkpt lat="43.83651" lon="0.93926">
        <ele>113</ele>
        <time>2020-12-26T19:45:29.000Z</time>
      </trkpt>
      <trkpt lat="43.83599" lon="0.93874">
        <ele>112</ele>
        <time>2020-12-26T19:45:40.000Z</time>
      </trkpt>
      <trkpt lat="43.83533" lon="0.93795">
        <ele>116</ele>
        <time>2020-12-26T19:45:56.000Z</time>
      </trkpt>
      <trkpt lat="43.83475" lon="0.93724">
        <ele>117</ele>
        <time>2020-12-26T19:46:10.000Z</time>
      </trkpt>
      <trkpt lat="43.8346" lon="0.93701">
        <ele>117</ele>
        <time>2020-12-26T19:46:14.000Z</time>
      </trkpt>
      <trkpt lat="43.83393" lon="0.9356">
        <ele>116</ele>
        <time>2020-12-26T19:46:35.000Z</time>
      </trkpt>
      <trkpt lat="43.83388" lon="0.93546">
        <ele>116</ele>
        <time>2020-12-26T19:46:37.000Z</time>
      </trkpt>
      <trkpt lat="43.83385" lon="0.9353">
        <ele>116</ele>
        <time>2020-12-26T19:46:39.000Z</time>
      </trkpt>
      <trkpt lat="43.83386" lon="0.93515">
        <ele>116</ele>
        <time>2020-12-26T19:46:41.000Z</time>
      </trkpt>
      <trkpt lat="43.83399" lon="0.93441">
        <ele>115</ele>
        <time>2020-12-26T19:46:51.000Z</time>
      </trkpt>
      <trkpt lat="43.83401" lon="0.93426">
        <ele>114</ele>
        <time>2020-12-26T19:46:53.000Z</time>
      </trkpt>
      <trkpt lat="43.834" lon="0.93411">
        <ele>114</ele>
        <time>2020-12-26T19:46:55.000Z</time>
      </trkpt>
      <trkpt lat="43.83397" lon="0.93395">
        <ele>114</ele>
        <time>2020-12-26T19:46:57.000Z</time>
      </trkpt>
      <trkpt lat="43.83381" lon="0.93357">
        <ele>113</ele>
        <time>2020-12-26T19:47:03.000Z</time>
      </trkpt>
      <trkpt lat="43.83372" lon="0.93342">
        <ele>113</ele>
        <time>2020-12-26T19:47:05.000Z</time>
      </trkpt>
      <trkpt lat="43.8335" lon="0.9331">
        <ele>112</ele>
        <time>2020-12-26T19:47:11.000Z</time>
      </trkpt>
      <trkpt lat="43.8326" lon="0.93197">
        <ele>110</ele>
        <time>2020-12-26T19:47:32.000Z</time>
      </trkpt>
      <trkpt lat="43.83118" lon="0.93054">
        <ele>113</ele>
        <time>2020-12-26T19:48:04.000Z</time>
      </trkpt>
      <trkpt lat="43.83069" lon="0.93012">
        <ele>113</ele>
        <time>2020-12-26T19:48:14.000Z</time>
      </trkpt>
      <trkpt lat="43.83035" lon="0.92987">
        <ele>113</ele>
        <time>2020-12-26T19:48:21.000Z</time>
      </trkpt>
      <trkpt lat="43.82991" lon="0.92963">
        <ele>112</ele>
        <time>2020-12-26T19:48:29.000Z</time>
      </trkpt>
      <trkpt lat="43.82903" lon="0.92931">
        <ele>110</ele>
        <time>2020-12-26T19:48:45.000Z</time>
      </trkpt>
      <trkpt lat="43.82848" lon="0.92918">
        <ele>109</ele>
        <time>2020-12-26T19:48:55.000Z</time>
      </trkpt>
      <trkpt lat="43.82824" lon="0.92906">
        <ele>109</ele>
        <time>2020-12-26T19:49:00.000Z</time>
      </trkpt>
      <trkpt lat="43.827" lon="0.92814">
        <ele>112</ele>
        <time>2020-12-26T19:49:25.000Z</time>
      </trkpt>
      <trkpt lat="43.82686" lon="0.92807">
        <ele>112</ele>
        <time>2020-12-26T19:49:28.000Z</time>
      </trkpt>
      <trkpt lat="43.82642" lon="0.92796">
        <ele>112</ele>
        <time>2020-12-26T19:49:35.000Z</time>
      </trkpt>
      <trkpt lat="43.82627" lon="0.92789">
        <ele>112</ele>
        <time>2020-12-26T19:49:38.000Z</time>
      </trkpt>
      <trkpt lat="43.82539" lon="0.9273">
        <ele>112</ele>
        <time>2020-12-26T19:49:56.000Z</time>
      </trkpt>
      <trkpt lat="43.82459" lon="0.92692">
        <ele>113</ele>
        <time>2020-12-26T19:50:11.000Z</time>
      </trkpt>
      <trkpt lat="43.82355" lon="0.92627">
        <ele>115</ele>
        <time>2020-12-26T19:50:31.000Z</time>
      </trkpt>
      <trkpt lat="43.82335" lon="0.92612">
        <ele>115</ele>
        <time>2020-12-26T19:50:35.000Z</time>
      </trkpt>
      <trkpt lat="43.82229" lon="0.92517">
        <ele>115</ele>
        <time>2020-12-26T19:50:58.000Z</time>
      </trkpt>
      <trkpt lat="43.82146" lon="0.92451">
        <ele>116</ele>
        <time>2020-12-26T19:51:15.000Z</time>
      </trkpt>
      <trkpt lat="43.82131" lon="0.92437">
        <ele>116</ele>
        <time>2020-12-26T19:51:18.000Z</time>
      </trkpt>
      <trkpt lat="43.82118" lon="0.92422">
        <ele>116</ele>
        <time>2020-12-26T19:51:21.000Z</time>
      </trkpt>
      <trkpt lat="43.82047" lon="0.92304">
        <ele>115</ele>
        <time>2020-12-26T19:51:41.000Z</time>
      </trkpt>
      <trkpt lat="43.82032" lon="0.92275">
        <ele>115</ele>
        <time>2020-12-26T19:51:45.000Z</time>
      </trkpt>
      <trkpt lat="43.82012" lon="0.92247">
        <ele>115</ele>
        <time>2020-12-26T19:51:50.000Z</time>
      </trkpt>
      <trkpt lat="43.81995" lon="0.92226">
        <ele>115</ele>
        <time>2020-12-26T19:51:54.000Z</time>
      </trkpt>
      <trkpt lat="43.81873" lon="0.92118">
        <ele>120</ele>
        <time>2020-12-26T19:52:20.000Z</time>
      </trkpt>
      <trkpt lat="43.81785" lon="0.92046">
        <ele>119</ele>
        <time>2020-12-26T19:52:38.000Z</time>
      </trkpt>
      <trkpt lat="43.81763" lon="0.92025">
        <ele>119</ele>
        <time>2020-12-26T19:52:43.000Z</time>
      </trkpt>
      <trkpt lat="43.8175" lon="0.9201">
        <ele>118</ele>
        <time>2020-12-26T19:52:46.000Z</time>
      </trkpt>
      <trkpt lat="43.8167" lon="0.9188">
        <ele>122</ele>
        <time>2020-12-26T19:53:08.000Z</time>
      </trkpt>
      <trkpt lat="43.81395" lon="0.91529">
        <ele>122</ele>
        <time>2020-12-26T19:54:14.000Z</time>
      </trkpt>
      <trkpt lat="43.81363" lon="0.91497">
        <ele>123</ele>
        <time>2020-12-26T19:54:21.000Z</time>
      </trkpt>
      <trkpt lat="43.81354" lon="0.91502">
        <ele>124</ele>
        <time>2020-12-26T19:54:23.000Z</time>
      </trkpt>
      <trkpt lat="43.81318" lon="0.91498">
        <ele>126</ele>
        <time>2020-12-26T19:54:30.000Z</time>
      </trkpt>
      <trkpt lat="43.81298" lon="0.91499">
        <ele>127</ele>
        <time>2020-12-26T19:54:33.000Z</time>
      </trkpt>
      <trkpt lat="43.81081" lon="0.91525">
        <ele>141</ele>
        <time>2020-12-26T19:55:12.000Z</time>
      </trkpt>
      <trkpt lat="43.81067" lon="0.91521">
        <ele>144</ele>
        <time>2020-12-26T19:55:14.000Z</time>
      </trkpt>
      <trkpt lat="43.8106" lon="0.91509">
        <ele>146</ele>
        <time>2020-12-26T19:55:16.000Z</time>
      </trkpt>
      <trkpt lat="43.81055" lon="0.91495">
        <ele>147</ele>
        <time>2020-12-26T19:55:18.000Z</time>
      </trkpt>
      <trkpt lat="43.81054" lon="0.91448">
        <ele>146</ele>
        <time>2020-12-26T19:55:24.000Z</time>
      </trkpt>
      <trkpt lat="43.81049" lon="0.91424">
        <ele>146</ele>
        <time>2020-12-26T19:55:28.000Z</time>
      </trkpt>
      <trkpt lat="43.81038" lon="0.91409">
        <ele>146</ele>
        <time>2020-12-26T19:55:30.000Z</time>
      </trkpt>
      <trkpt lat="43.81025" lon="0.914">
        <ele>147</ele>
        <time>2020-12-26T19:55:33.000Z</time>
      </trkpt>
      <trkpt lat="43.81009" lon="0.91399">
        <ele>149</ele>
        <time>2020-12-26T19:55:36.000Z</time>
      </trkpt>
      <trkpt lat="43.8096" lon="0.91418">
        <ele>152</ele>
        <time>2020-12-26T19:55:45.000Z</time>
      </trkpt>
      <trkpt lat="43.8087" lon="0.91492">
        <ele>156</ele>
        <time>2020-12-26T19:56:04.000Z</time>
      </trkpt>
      <trkpt lat="43.80866" lon="0.91508">
        <ele>157</ele>
        <time>2020-12-26T19:56:06.000Z</time>
      </trkpt>
      <trkpt lat="43.80868" lon="0.91518">
        <ele>157</ele>
        <time>2020-12-26T19:56:07.000Z</time>
      </trkpt>
      <trkpt lat="43.80888" lon="0.91573">
        <ele>163</ele>
        <time>2020-12-26T19:56:15.000Z</time>
      </trkpt>
      <trkpt lat="43.80891" lon="0.91589">
        <ele>165</ele>
        <time>2020-12-26T19:56:17.000Z</time>
      </trkpt>
      <trkpt lat="43.80887" lon="0.91596">
        <ele>164</ele>
        <time>2020-12-26T19:56:18.000Z</time>
      </trkpt>
      <trkpt lat="43.80881" lon="0.91621">
        <ele>163</ele>
        <time>2020-12-26T19:56:22.000Z</time>
      </trkpt>
      <trkpt lat="43.80877" lon="0.91629">
        <ele>162</ele>
        <time>2020-12-26T19:56:23.000Z</time>
      </trkpt>
      <trkpt lat="43.80863" lon="0.91621">
        <ele>158</ele>
        <time>2020-12-26T19:56:26.000Z</time>
      </trkpt>
      <trkpt lat="43.80846" lon="0.91621">
        <ele>154</ele>
        <time>2020-12-26T19:56:29.000Z</time>
      </trkpt>
      <trkpt lat="43.80833" lon="0.91632">
        <ele>151</ele>
        <time>2020-12-26T19:56:31.000Z</time>
      </trkpt>
      <trkpt lat="43.80814" lon="0.91654">
        <ele>148</ele>
        <time>2020-12-26T19:56:36.000Z</time>
      </trkpt>
      <trkpt lat="43.80773" lon="0.91681">
        <ele>141</ele>
        <time>2020-12-26T19:56:44.000Z</time>
      </trkpt>
      <trkpt lat="43.80733" lon="0.91698">
        <ele>138</ele>
        <time>2020-12-26T19:56:51.000Z</time>
      </trkpt>
      <trkpt lat="43.80702" lon="0.91702">
        <ele>140</ele>
        <time>2020-12-26T19:56:57.000Z</time>
      </trkpt>
      <trkpt lat="43.80667" lon="0.917">
        <ele>142</ele>
        <time>2020-12-26T19:57:03.000Z</time>
      </trkpt>
      <trkpt lat="43.80569" lon="0.91638">
        <ele>123</ele>
        <time>2020-12-26T19:57:22.000Z</time>
      </trkpt>
      <trkpt lat="43.80547" lon="0.91603">
        <ele>119</ele>
        <time>2020-12-26T19:57:28.000Z</time>
      </trkpt>
      <trkpt lat="43.80535" lon="0.91592">
        <ele>118</ele>
        <time>2020-12-26T19:57:31.000Z</time>
      </trkpt>
      <trkpt lat="43.80502" lon="0.91545">
        <ele>116</ele>
        <time>2020-12-26T19:57:39.000Z</time>
      </trkpt>
      <trkpt lat="43.80496" lon="0.91541">
        <ele>116</ele>
        <time>2020-12-26T19:57:40.000Z</time>
      </trkpt>
      <trkpt lat="43.80485" lon="0.91538">
        <ele>116</ele>
        <time>2020-12-26T19:57:42.000Z</time>
      </trkpt>
      <trkpt lat="43.80429" lon="0.91495">
        <ele>118</ele>
        <time>2020-12-26T19:57:54.000Z</time>
      </trkpt>
      <trkpt lat="43.8034" lon="0.91415">
        <ele>118</ele>
        <time>2020-12-26T19:58:13.000Z</time>
      </trkpt>
      <trkpt lat="43.80323" lon="0.91403">
        <ele>118</ele>
        <time>2020-12-26T19:58:16.000Z</time>
      </trkpt>
      <trkpt lat="43.80068" lon="0.91257">
        <ele>121</ele>
        <time>2020-12-26T19:59:05.000Z</time>
      </trkpt>
      <trkpt lat="43.79896" lon="0.91166">
        <ele>130</ele>
        <time>2020-12-26T19:59:38.000Z</time>
      </trkpt>
      <trkpt lat="43.79876" lon="0.91149">
        <ele>131</ele>
        <time>2020-12-26T19:59:42.000Z</time>
      </trkpt>
      <trkpt lat="43.7986" lon="0.91169">
        <ele>131</ele>
        <time>2020-12-26T19:59:46.000Z</time>
      </trkpt>
      <trkpt lat="43.7983" lon="0.91197">
        <ele>131</ele>
        <time>2020-12-26T19:59:52.000Z</time>
      </trkpt>
      <trkpt lat="43.79804" lon="0.91218">
        <ele>130</ele>
        <time>2020-12-26T19:59:58.000Z</time>
      </trkpt>
      <trkpt lat="43.79675" lon="0.91306">
        <ele>126</ele>
        <time>2020-12-26T20:00:23.000Z</time>
      </trkpt>
      <trkpt lat="43.79438" lon="0.91484">
        <ele>122</ele>
        <time>2020-12-26T20:01:11.000Z</time>
      </trkpt>
      <trkpt lat="43.79325" lon="0.91555">
        <ele>123</ele>
        <time>2020-12-26T20:01:33.000Z</time>
      </trkpt>
      <trkpt lat="43.79283" lon="0.91573">
        <ele>124</ele>
        <time>2020-12-26T20:01:41.000Z</time>
      </trkpt>
      <trkpt lat="43.79266" lon="0.91585">
        <ele>124</ele>
        <time>2020-12-26T20:01:44.000Z</time>
      </trkpt>
      <trkpt lat="43.79255" lon="0.91597">
        <ele>123</ele>
        <time>2020-12-26T20:01:47.000Z</time>
      </trkpt>
      <trkpt lat="43.79194" lon="0.9168">
        <ele>123</ele>
        <time>2020-12-26T20:02:02.000Z</time>
      </trkpt>
      <trkpt lat="43.79155" lon="0.91741">
        <ele>122</ele>
        <time>2020-12-26T20:02:13.000Z</time>
      </trkpt>
      <trkpt lat="43.7898" lon="0.91964">
        <ele>123</ele>
        <time>2020-12-26T20:02:55.000Z</time>
      </trkpt>
      <trkpt lat="43.78944" lon="0.92015">
        <ele>123</ele>
        <time>2020-12-26T20:03:04.000Z</time>
      </trkpt>
      <trkpt lat="43.78919" lon="0.92045">
        <ele>124</ele>
        <time>2020-12-26T20:03:10.000Z</time>
      </trkpt>
      <trkpt lat="43.78886" lon="0.92089">
        <ele>126</ele>
        <time>2020-12-26T20:03:18.000Z</time>
      </trkpt>
      <trkpt lat="43.78845" lon="0.92137">
        <ele>127</ele>
        <time>2020-12-26T20:03:28.000Z</time>
      </trkpt>
      <trkpt lat="43.78735" lon="0.92215">
        <ele>130</ele>
        <time>2020-12-26T20:03:50.000Z</time>
      </trkpt>
      <trkpt lat="43.78697" lon="0.92246">
        <ele>132</ele>
        <time>2020-12-26T20:03:57.000Z</time>
      </trkpt>
      <trkpt lat="43.78603" lon="0.92297">
        <ele>133</ele>
        <time>2020-12-26T20:04:15.000Z</time>
      </trkpt>
      <trkpt lat="43.78562" lon="0.92318">
        <ele>132</ele>
        <time>2020-12-26T20:04:23.000Z</time>
      </trkpt>
      <trkpt lat="43.78405" lon="0.9232">
        <ele>126</ele>
        <time>2020-12-26T20:04:51.000Z</time>
      </trkpt>
      <trkpt lat="43.78358" lon="0.92334">
        <ele>125</ele>
        <time>2020-12-26T20:05:00.000Z</time>
      </trkpt>
      <trkpt lat="43.78306" lon="0.92347">
        <ele>123</ele>
        <time>2020-12-26T20:05:09.000Z</time>
      </trkpt>
      <trkpt lat="43.78237" lon="0.92349">
        <ele>122</ele>
        <time>2020-12-26T20:05:21.000Z</time>
      </trkpt>
      <trkpt lat="43.78204" lon="0.92359">
        <ele>122</ele>
        <time>2020-12-26T20:05:27.000Z</time>
      </trkpt>
      <trkpt lat="43.78168" lon="0.92378">
        <ele>121</ele>
        <time>2020-12-26T20:05:34.000Z</time>
      </trkpt>
      <trkpt lat="43.78114" lon="0.92384">
        <ele>122</ele>
        <time>2020-12-26T20:05:44.000Z</time>
      </trkpt>
      <trkpt lat="43.78063" lon="0.92394">
        <ele>123</ele>
        <time>2020-12-26T20:05:53.000Z</time>
      </trkpt>
      <trkpt lat="43.78027" lon="0.9242">
        <ele>124</ele>
        <time>2020-12-26T20:06:00.000Z</time>
      </trkpt>
      <trkpt lat="43.77994" lon="0.92455">
        <ele>123</ele>
        <time>2020-12-26T20:06:08.000Z</time>
      </trkpt>
      <trkpt lat="43.77951" lon="0.92555">
        <ele>123</ele>
        <time>2020-12-26T20:06:23.000Z</time>
      </trkpt>
      <trkpt lat="43.7792" lon="0.92601">
        <ele>124</ele>
        <time>2020-12-26T20:06:31.000Z</time>
      </trkpt>
      <trkpt lat="43.77826" lon="0.9272">
        <ele>127</ele>
        <time>2020-12-26T20:06:53.000Z</time>
      </trkpt>
      <trkpt lat="43.77788" lon="0.92751">
        <ele>128</ele>
        <time>2020-12-26T20:07:01.000Z</time>
      </trkpt>
      <trkpt lat="43.77758" lon="0.92765">
        <ele>129</ele>
        <time>2020-12-26T20:07:07.000Z</time>
      </trkpt>
      <trkpt lat="43.7765" lon="0.92789">
        <ele>130</ele>
        <time>2020-12-26T20:07:26.000Z</time>
      </trkpt>
      <trkpt lat="43.77608" lon="0.92791">
        <ele>129</ele>
        <time>2020-12-26T20:07:34.000Z</time>
      </trkpt>
      <trkpt lat="43.77554" lon="0.92788">
        <ele>128</ele>
        <time>2020-12-26T20:07:43.000Z</time>
      </trkpt>
      <trkpt lat="43.77527" lon="0.92794">
        <ele>128</ele>
        <time>2020-12-26T20:07:48.000Z</time>
      </trkpt>
      <trkpt lat="43.77515" lon="0.92803">
        <ele>127</ele>
        <time>2020-12-26T20:07:51.000Z</time>
      </trkpt>
      <trkpt lat="43.77501" lon="0.92827">
        <ele>126</ele>
        <time>2020-12-26T20:07:55.000Z</time>
      </trkpt>
      <trkpt lat="43.77488" lon="0.92878">
        <ele>126</ele>
        <time>2020-12-26T20:08:02.000Z</time>
      </trkpt>
      <trkpt lat="43.77475" lon="0.92925">
        <ele>126</ele>
        <time>2020-12-26T20:08:08.000Z</time>
      </trkpt>
      <trkpt lat="43.77464" lon="0.92949">
        <ele>127</ele>
        <time>2020-12-26T20:08:12.000Z</time>
      </trkpt>
      <trkpt lat="43.77448" lon="0.92962">
        <ele>127</ele>
        <time>2020-12-26T20:08:15.000Z</time>
      </trkpt>
      <trkpt lat="43.77418" lon="0.92959">
        <ele>128</ele>
        <time>2020-12-26T20:08:20.000Z</time>
      </trkpt>
      <trkpt lat="43.77359" lon="0.92921">
        <ele>129</ele>
        <time>2020-12-26T20:08:32.000Z</time>
      </trkpt>
      <trkpt lat="43.77357" lon="0.9291">
        <ele>129</ele>
        <time>2020-12-26T20:08:33.000Z</time>
      </trkpt>
      <trkpt lat="43.77347" lon="0.92895">
        <ele>129</ele>
        <time>2020-12-26T20:08:36.000Z</time>
      </trkpt>
      <trkpt lat="43.77178" lon="0.92656">
        <ele>143</ele>
        <time>2020-12-26T20:09:19.000Z</time>
      </trkpt>
      <trkpt lat="43.77065" lon="0.92471">
        <ele>153</ele>
        <time>2020-12-26T20:09:50.000Z</time>
      </trkpt>
      <trkpt lat="43.77009" lon="0.92434">
        <ele>154</ele>
        <time>2020-12-26T20:10:01.000Z</time>
      </trkpt>
      <trkpt lat="43.76946" lon="0.92399">
        <ele>157</ele>
        <time>2020-12-26T20:10:13.000Z</time>
      </trkpt>
      <trkpt lat="43.76917" lon="0.92375">
        <ele>158</ele>
        <time>2020-12-26T20:10:19.000Z</time>
      </trkpt>
      <trkpt lat="43.76826" lon="0.92285">
        <ele>164</ele>
        <time>2020-12-26T20:10:39.000Z</time>
      </trkpt>
      <trkpt lat="43.76637" lon="0.9227">
        <ele>158</ele>
        <time>2020-12-26T20:11:13.000Z</time>
      </trkpt>
      <trkpt lat="43.76418" lon="0.92205">
        <ele>166</ele>
        <time>2020-12-26T20:11:53.000Z</time>
      </trkpt>
      <trkpt lat="43.76328" lon="0.92195">
        <ele>165</ele>
        <time>2020-12-26T20:12:09.000Z</time>
      </trkpt>
      <trkpt lat="43.76271" lon="0.92176">
        <ele>165</ele>
        <time>2020-12-26T20:12:19.000Z</time>
      </trkpt>
      <trkpt lat="43.76034" lon="0.92075">
        <ele>177</ele>
        <time>2020-12-26T20:13:03.000Z</time>
      </trkpt>
      <trkpt lat="43.76014" lon="0.92073">
        <ele>177</ele>
        <time>2020-12-26T20:13:07.000Z</time>
      </trkpt>
      <trkpt lat="43.75817" lon="0.92081">
        <ele>176</ele>
        <time>2020-12-26T20:13:42.000Z</time>
      </trkpt>
      <trkpt lat="43.75784" lon="0.92079">
        <ele>177</ele>
        <time>2020-12-26T20:13:48.000Z</time>
      </trkpt>
      <trkpt lat="43.75721" lon="0.92071">
        <ele>179</ele>
        <time>2020-12-26T20:13:59.000Z</time>
      </trkpt>
      <trkpt lat="43.75669" lon="0.92051">
        <ele>181</ele>
        <time>2020-12-26T20:14:09.000Z</time>
      </trkpt>
      <trkpt lat="43.75643" lon="0.92032">
        <ele>182</ele>
        <time>2020-12-26T20:14:14.000Z</time>
      </trkpt>
      <trkpt lat="43.75608" lon="0.92011">
        <ele>182</ele>
        <time>2020-12-26T20:14:21.000Z</time>
      </trkpt>
      <trkpt lat="43.75516" lon="0.91963">
        <ele>179</ele>
        <time>2020-12-26T20:14:38.000Z</time>
      </trkpt>
      <trkpt lat="43.75471" lon="0.91937">
        <ele>178</ele>
        <time>2020-12-26T20:14:47.000Z</time>
      </trkpt>
      <trkpt lat="43.7543" lon="0.91907">
        <ele>178</ele>
        <time>2020-12-26T20:14:55.000Z</time>
      </trkpt>
      <trkpt lat="43.75363" lon="0.91846">
        <ele>179</ele>
        <time>2020-12-26T20:15:09.000Z</time>
      </trkpt>
      <trkpt lat="43.75341" lon="0.91834">
        <ele>179</ele>
        <time>2020-12-26T20:15:14.000Z</time>
      </trkpt>
      <trkpt lat="43.75306" lon="0.91829">
        <ele>179</ele>
        <time>2020-12-26T20:15:20.000Z</time>
      </trkpt>
      <trkpt lat="43.75243" lon="0.91833">
        <ele>181</ele>
        <time>2020-12-26T20:15:31.000Z</time>
      </trkpt>
      <trkpt lat="43.75215" lon="0.91826">
        <ele>183</ele>
        <time>2020-12-26T20:15:36.000Z</time>
      </trkpt>
      <trkpt lat="43.75197" lon="0.91818">
        <ele>184</ele>
        <time>2020-12-26T20:15:40.000Z</time>
      </trkpt>
      <trkpt lat="43.7517" lon="0.91798">
        <ele>185</ele>
        <time>2020-12-26T20:15:45.000Z</time>
      </trkpt>
      <trkpt lat="43.75139" lon="0.91763">
        <ele>185</ele>
        <time>2020-12-26T20:15:52.000Z</time>
      </trkpt>
      <trkpt lat="43.7511" lon="0.91725">
        <ele>183</ele>
        <time>2020-12-26T20:15:59.000Z</time>
      </trkpt>
      <trkpt lat="43.75091" lon="0.91694">
        <ele>181</ele>
        <time>2020-12-26T20:16:04.000Z</time>
      </trkpt>
      <trkpt lat="43.75079" lon="0.91666">
        <ele>180</ele>
        <time>2020-12-26T20:16:09.000Z</time>
      </trkpt>
      <trkpt lat="43.75072" lon="0.91633">
        <ele>178</ele>
        <time>2020-12-26T20:16:13.000Z</time>
      </trkpt>
      <trkpt lat="43.75053" lon="0.91527">
        <ele>172</ele>
        <time>2020-12-26T20:16:27.000Z</time>
      </trkpt>
      <trkpt lat="43.75044" lon="0.91459">
        <ele>169</ele>
        <time>2020-12-26T20:16:36.000Z</time>
      </trkpt>
      <trkpt lat="43.74968" lon="0.91253">
        <ele>161</ele>
        <time>2020-12-26T20:17:06.000Z</time>
      </trkpt>
      <trkpt lat="43.74948" lon="0.91169">
        <ele>156</ele>
        <time>2020-12-26T20:17:17.000Z</time>
      </trkpt>
      <trkpt lat="43.7495" lon="0.91078">
        <ele>156</ele>
        <time>2020-12-26T20:17:29.000Z</time>
      </trkpt>
      <trkpt lat="43.74939" lon="0.91032">
        <ele>156</ele>
        <time>2020-12-26T20:17:35.000Z</time>
      </trkpt>
      <trkpt lat="43.74908" lon="0.90976">
        <ele>156</ele>
        <time>2020-12-26T20:17:44.000Z</time>
      </trkpt>
      <trkpt lat="43.74888" lon="0.90945">
        <ele>154</ele>
        <time>2020-12-26T20:17:49.000Z</time>
      </trkpt>
      <trkpt lat="43.74853" lon="0.90918">
        <ele>152</ele>
        <time>2020-12-26T20:17:56.000Z</time>
      </trkpt>
      <trkpt lat="43.74789" lon="0.90882">
        <ele>144</ele>
        <time>2020-12-26T20:18:09.000Z</time>
      </trkpt>
      <trkpt lat="43.74689" lon="0.90813">
        <ele>133</ele>
        <time>2020-12-26T20:18:29.000Z</time>
      </trkpt>
      <trkpt lat="43.74582" lon="0.907">
        <ele>129</ele>
        <time>2020-12-26T20:18:53.000Z</time>
      </trkpt>
      <trkpt lat="43.74556" lon="0.90676">
        <ele>129</ele>
        <time>2020-12-26T20:18:58.000Z</time>
      </trkpt>
      <trkpt lat="43.74516" lon="0.90651">
        <ele>129</ele>
        <time>2020-12-26T20:19:06.000Z</time>
      </trkpt>
      <trkpt lat="43.74367" lon="0.90603">
        <ele>131</ele>
        <time>2020-12-26T20:19:33.000Z</time>
      </trkpt>
      <trkpt lat="43.74342" lon="0.90604">
        <ele>132</ele>
        <time>2020-12-26T20:19:38.000Z</time>
      </trkpt>
      <trkpt lat="43.74292" lon="0.9061">
        <ele>132</ele>
        <time>2020-12-26T20:19:47.000Z</time>
      </trkpt>
      <trkpt lat="43.74256" lon="0.90609">
        <ele>131</ele>
        <time>2020-12-26T20:19:53.000Z</time>
      </trkpt>
      <trkpt lat="43.74138" lon="0.90571">
        <ele>129</ele>
        <time>2020-12-26T20:20:15.000Z</time>
      </trkpt>
      <trkpt lat="43.73997" lon="0.90549">
        <ele>129</ele>
        <time>2020-12-26T20:20:40.000Z</time>
      </trkpt>
      <trkpt lat="43.73907" lon="0.90514">
        <ele>128</ele>
        <time>2020-12-26T20:20:56.000Z</time>
      </trkpt>
      <trkpt lat="43.73851" lon="0.90506">
        <ele>127</ele>
        <time>2020-12-26T20:21:06.000Z</time>
      </trkpt>
      <trkpt lat="43.73784" lon="0.905">
        <ele>127</ele>
        <time>2020-12-26T20:21:18.000Z</time>
      </trkpt>
      <trkpt lat="43.73751" lon="0.90505">
        <ele>127</ele>
        <time>2020-12-26T20:21:24.000Z</time>
      </trkpt>
      <trkpt lat="43.73689" lon="0.90522">
        <ele>129</ele>
        <time>2020-12-26T20:21:36.000Z</time>
      </trkpt>
      <trkpt lat="43.73663" lon="0.90522">
        <ele>129</ele>
        <time>2020-12-26T20:21:40.000Z</time>
      </trkpt>
      <trkpt lat="43.73278" lon="0.90419">
        <ele>131</ele>
        <time>2020-12-26T20:22:50.000Z</time>
      </trkpt>
      <trkpt lat="43.73143" lon="0.9041">
        <ele>134</ele>
        <time>2020-12-26T20:23:14.000Z</time>
      </trkpt>
      <trkpt lat="43.7309" lon="0.90394">
        <ele>133</ele>
        <time>2020-12-26T20:23:24.000Z</time>
      </trkpt>
      <trkpt lat="43.73063" lon="0.90384">
        <ele>132</ele>
        <time>2020-12-26T20:23:29.000Z</time>
      </trkpt>
      <trkpt lat="43.73036" lon="0.90377">
        <ele>131</ele>
        <time>2020-12-26T20:23:34.000Z</time>
      </trkpt>
      <trkpt lat="43.73027" lon="0.90378">
        <ele>130</ele>
        <time>2020-12-26T20:23:35.000Z</time>
      </trkpt>
      <trkpt lat="43.72841" lon="0.90525">
        <ele>135</ele>
        <time>2020-12-26T20:24:13.000Z</time>
      </trkpt>
      <trkpt lat="43.72782" lon="0.90542">
        <ele>131</ele>
        <time>2020-12-26T20:24:24.000Z</time>
      </trkpt>
      <trkpt lat="43.72588" lon="0.90568">
        <ele>129</ele>
        <time>2020-12-26T20:24:59.000Z</time>
      </trkpt>
      <trkpt lat="43.72556" lon="0.90566">
        <ele>130</ele>
        <time>2020-12-26T20:25:04.000Z</time>
      </trkpt>
      <trkpt lat="43.72474" lon="0.90544">
        <ele>130</ele>
        <time>2020-12-26T20:25:19.000Z</time>
      </trkpt>
      <trkpt lat="43.72423" lon="0.90537">
        <ele>130</ele>
        <time>2020-12-26T20:25:28.000Z</time>
      </trkpt>
      <trkpt lat="43.72379" lon="0.90548">
        <ele>131</ele>
        <time>2020-12-26T20:25:36.000Z</time>
      </trkpt>
      <trkpt lat="43.72306" lon="0.90593">
        <ele>134</ele>
        <time>2020-12-26T20:25:50.000Z</time>
      </trkpt>
      <trkpt lat="43.72282" lon="0.90606">
        <ele>136</ele>
        <time>2020-12-26T20:25:55.000Z</time>
      </trkpt>
      <trkpt lat="43.72251" lon="0.90618">
        <ele>138</ele>
        <time>2020-12-26T20:26:01.000Z</time>
      </trkpt>
      <trkpt lat="43.7221" lon="0.90622">
        <ele>138</ele>
        <time>2020-12-26T20:26:08.000Z</time>
      </trkpt>
      <trkpt lat="43.72153" lon="0.90619">
        <ele>136</ele>
        <time>2020-12-26T20:26:18.000Z</time>
      </trkpt>
      <trkpt lat="43.72091" lon="0.90624">
        <ele>132</ele>
        <time>2020-12-26T20:26:29.000Z</time>
      </trkpt>
      <trkpt lat="43.72064" lon="0.90622">
        <ele>132</ele>
        <time>2020-12-26T20:26:34.000Z</time>
      </trkpt>
      <trkpt lat="43.72045" lon="0.90605">
        <ele>132</ele>
        <time>2020-12-26T20:26:38.000Z</time>
      </trkpt>
      <trkpt lat="43.72022" lon="0.90571">
        <ele>132</ele>
        <time>2020-12-26T20:26:44.000Z</time>
      </trkpt>
      <trkpt lat="43.72016" lon="0.90566">
        <ele>132</ele>
        <time>2020-12-26T20:26:45.000Z</time>
      </trkpt>
      <trkpt lat="43.72001" lon="0.90547">
        <ele>131</ele>
        <time>2020-12-26T20:26:49.000Z</time>
      </trkpt>
      <trkpt lat="43.71958" lon="0.90526">
        <ele>131</ele>
        <time>2020-12-26T20:26:57.000Z</time>
      </trkpt>
      <trkpt lat="43.71769" lon="0.90468">
        <ele>135</ele>
        <time>2020-12-26T20:27:32.000Z</time>
      </trkpt>
      <trkpt lat="43.71624" lon="0.90448">
        <ele>135</ele>
        <time>2020-12-26T20:27:57.000Z</time>
      </trkpt>
      <trkpt lat="43.71504" lon="0.90446">
        <ele>139</ele>
        <time>2020-12-26T20:28:19.000Z</time>
      </trkpt>
      <trkpt lat="43.71468" lon="0.90444">
        <ele>138</ele>
        <time>2020-12-26T20:28:25.000Z</time>
      </trkpt>
      <trkpt lat="43.71444" lon="0.9045">
        <ele>137</ele>
        <time>2020-12-26T20:28:30.000Z</time>
      </trkpt>
      <trkpt lat="43.71424" lon="0.90464">
        <ele>137</ele>
        <time>2020-12-26T20:28:34.000Z</time>
      </trkpt>
      <trkpt lat="43.71399" lon="0.90461">
        <ele>137</ele>
        <time>2020-12-26T20:28:38.000Z</time>
      </trkpt>
      <trkpt lat="43.71361" lon="0.90438">
        <ele>137</ele>
        <time>2020-12-26T20:28:45.000Z</time>
      </trkpt>
      <trkpt lat="43.7134" lon="0.90434">
        <ele>136</ele>
        <time>2020-12-26T20:28:49.000Z</time>
      </trkpt>
      <trkpt lat="43.71241" lon="0.90452">
        <ele>138</ele>
        <time>2020-12-26T20:29:07.000Z</time>
      </trkpt>
      <trkpt lat="43.71162" lon="0.9045">
        <ele>137</ele>
        <time>2020-12-26T20:29:21.000Z</time>
      </trkpt>
      <trkpt lat="43.71121" lon="0.9046">
        <ele>136</ele>
        <time>2020-12-26T20:29:28.000Z</time>
      </trkpt>
      <trkpt lat="43.71057" lon="0.90508">
        <ele>138</ele>
        <time>2020-12-26T20:29:41.000Z</time>
      </trkpt>
      <trkpt lat="43.71019" lon="0.90546">
        <ele>141</ele>
        <time>2020-12-26T20:29:50.000Z</time>
      </trkpt>
      <trkpt lat="43.70935" lon="0.90573">
        <ele>144</ele>
        <time>2020-12-26T20:30:05.000Z</time>
      </trkpt>
      <trkpt lat="43.70853" lon="0.90559">
        <ele>142</ele>
        <time>2020-12-26T20:30:20.000Z</time>
      </trkpt>
      <trkpt lat="43.70803" lon="0.90566">
        <ele>141</ele>
        <time>2020-12-26T20:30:29.000Z</time>
      </trkpt>
      <trkpt lat="43.7065" lon="0.906">
        <ele>138</ele>
        <time>2020-12-26T20:30:56.000Z</time>
      </trkpt>
      <trkpt lat="43.70613" lon="0.90603">
        <ele>138</ele>
        <time>2020-12-26T20:31:03.000Z</time>
      </trkpt>
      <trkpt lat="43.70578" lon="0.90599">
        <ele>137</ele>
        <time>2020-12-26T20:31:09.000Z</time>
      </trkpt>
      <trkpt lat="43.70323" lon="0.90557">
        <ele>137</ele>
        <time>2020-12-26T20:31:55.000Z</time>
      </trkpt>
      <trkpt lat="43.70103" lon="0.9049">
        <ele>137</ele>
        <time>2020-12-26T20:32:35.000Z</time>
      </trkpt>
      <trkpt lat="43.70078" lon="0.90486">
        <ele>138</ele>
        <time>2020-12-26T20:32:39.000Z</time>
      </trkpt>
      <trkpt lat="43.69964" lon="0.90476">
        <ele>139</ele>
        <time>2020-12-26T20:33:00.000Z</time>
      </trkpt>
      <trkpt lat="43.69929" lon="0.90489">
        <ele>140</ele>
        <time>2020-12-26T20:33:06.000Z</time>
      </trkpt>
      <trkpt lat="43.69884" lon="0.90512">
        <ele>141</ele>
        <time>2020-12-26T20:33:15.000Z</time>
      </trkpt>
      <trkpt lat="43.69839" lon="0.90553">
        <ele>143</ele>
        <time>2020-12-26T20:33:24.000Z</time>
      </trkpt>
      <trkpt lat="43.69748" lon="0.90663">
        <ele>141</ele>
        <time>2020-12-26T20:33:46.000Z</time>
      </trkpt>
      <trkpt lat="43.6959" lon="0.90894">
        <ele>133</ele>
        <time>2020-12-26T20:34:27.000Z</time>
      </trkpt>
      <trkpt lat="43.69532" lon="0.90955">
        <ele>135</ele>
        <time>2020-12-26T20:34:40.000Z</time>
      </trkpt>
      <trkpt lat="43.69499" lon="0.90982">
        <ele>137</ele>
        <time>2020-12-26T20:34:46.000Z</time>
      </trkpt>
      <trkpt lat="43.69326" lon="0.9111">
        <ele>141</ele>
        <time>2020-12-26T20:35:21.000Z</time>
      </trkpt>
      <trkpt lat="43.69182" lon="0.91182">
        <ele>138</ele>
        <time>2020-12-26T20:35:49.000Z</time>
      </trkpt>
      <trkpt lat="43.69176" lon="0.91203">
        <ele>138</ele>
        <time>2020-12-26T20:35:52.000Z</time>
      </trkpt>
      <trkpt lat="43.69158" lon="0.91237">
        <ele>138</ele>
        <time>2020-12-26T20:35:57.000Z</time>
      </trkpt>
      <trkpt lat="43.69135" lon="0.9127">
        <ele>139</ele>
        <time>2020-12-26T20:36:03.000Z</time>
      </trkpt>
      <trkpt lat="43.69088" lon="0.91314">
        <ele>144</ele>
        <time>2020-12-26T20:36:13.000Z</time>
      </trkpt>
      <trkpt lat="43.69043" lon="0.91343">
        <ele>145</ele>
        <time>2020-12-26T20:36:22.000Z</time>
      </trkpt>
      <trkpt lat="43.68963" lon="0.91382">
        <ele>147</ele>
        <time>2020-12-26T20:36:37.000Z</time>
      </trkpt>
      <trkpt lat="43.68949" lon="0.9135">
        <ele>143</ele>
        <time>2020-12-26T20:36:42.000Z</time>
      </trkpt>
      <trkpt lat="43.689" lon="0.91275">
        <ele>139</ele>
        <time>2020-12-26T20:36:55.000Z</time>
      </trkpt>
      <trkpt lat="43.68866" lon="0.91225">
        <ele>137</ele>
        <time>2020-12-26T20:37:04.000Z</time>
      </trkpt>
      <trkpt lat="43.68816" lon="0.91134">
        <ele>136</ele>
        <time>2020-12-26T20:37:18.000Z</time>
      </trkpt>
      <trkpt lat="43.68724" lon="0.91044">
        <ele>136</ele>
        <time>2020-12-26T20:37:38.000Z</time>
      </trkpt>
      <trkpt lat="43.68715" lon="0.91034">
        <ele>136</ele>
        <time>2020-12-26T20:37:40.000Z</time>
      </trkpt>
      <trkpt lat="43.68686" lon="0.90992">
        <ele>138</ele>
        <time>2020-12-26T20:37:48.000Z</time>
      </trkpt>
      <trkpt lat="43.68662" lon="0.90961">
        <ele>141</ele>
        <time>2020-12-26T20:37:54.000Z</time>
      </trkpt>
      <trkpt lat="43.68638" lon="0.9094">
        <ele>144</ele>
        <time>2020-12-26T20:37:59.000Z</time>
      </trkpt>
      <trkpt lat="43.68601" lon="0.90917">
        <ele>148</ele>
        <time>2020-12-26T20:38:06.000Z</time>
      </trkpt>
      <trkpt lat="43.68576" lon="0.90908">
        <ele>150</ele>
        <time>2020-12-26T20:38:11.000Z</time>
      </trkpt>
      <trkpt lat="43.68545" lon="0.90903">
        <ele>150</ele>
        <time>2020-12-26T20:38:16.000Z</time>
      </trkpt>
      <trkpt lat="43.68305" lon="0.90878">
        <ele>155</ele>
        <time>2020-12-26T20:38:59.000Z</time>
      </trkpt>
      <trkpt lat="43.68262" lon="0.90876">
        <ele>157</ele>
        <time>2020-12-26T20:39:07.000Z</time>
      </trkpt>
      <trkpt lat="43.68239" lon="0.90876">
        <ele>159</ele>
        <time>2020-12-26T20:39:11.000Z</time>
      </trkpt>
      <trkpt lat="43.68224" lon="0.90882">
        <ele>159</ele>
        <time>2020-12-26T20:39:13.000Z</time>
      </trkpt>
      <trkpt lat="43.68204" lon="0.90894">
        <ele>160</ele>
        <time>2020-12-26T20:39:17.000Z</time>
      </trkpt>
      <trkpt lat="43.67961" lon="0.911">
        <ele>165</ele>
        <time>2020-12-26T20:40:08.000Z</time>
      </trkpt>
      <trkpt lat="43.67701" lon="0.91318">
        <ele>171</ele>
        <time>2020-12-26T20:41:02.000Z</time>
      </trkpt>
      <trkpt lat="43.6765" lon="0.91345">
        <ele>172</ele>
        <time>2020-12-26T20:41:12.000Z</time>
      </trkpt>
      <trkpt lat="43.67538" lon="0.91387">
        <ele>176</ele>
        <time>2020-12-26T20:41:32.000Z</time>
      </trkpt>
      <trkpt lat="43.67419" lon="0.91423">
        <ele>181</ele>
        <time>2020-12-26T20:41:54.000Z</time>
      </trkpt>
      <trkpt lat="43.67341" lon="0.91445">
        <ele>182</ele>
        <time>2020-12-26T20:42:08.000Z</time>
      </trkpt>
      <trkpt lat="43.67264" lon="0.91436">
        <ele>181</ele>
        <time>2020-12-26T20:42:22.000Z</time>
      </trkpt>
      <trkpt lat="43.66888" lon="0.91346">
        <ele>186</ele>
        <time>2020-12-26T20:43:30.000Z</time>
      </trkpt>
      <trkpt lat="43.66863" lon="0.91338">
        <ele>186</ele>
        <time>2020-12-26T20:43:35.000Z</time>
      </trkpt>
      <trkpt lat="43.66774" lon="0.91297">
        <ele>185</ele>
        <time>2020-12-26T20:43:51.000Z</time>
      </trkpt>
      <trkpt lat="43.66724" lon="0.9129">
        <ele>185</ele>
        <time>2020-12-26T20:44:00.000Z</time>
      </trkpt>
      <trkpt lat="43.66629" lon="0.91295">
        <ele>187</ele>
        <time>2020-12-26T20:44:17.000Z</time>
      </trkpt>
      <trkpt lat="43.66572" lon="0.91302">
        <ele>188</ele>
        <time>2020-12-26T20:44:27.000Z</time>
      </trkpt>
      <trkpt lat="43.66523" lon="0.91311">
        <ele>189</ele>
        <time>2020-12-26T20:44:36.000Z</time>
      </trkpt>
      <trkpt lat="43.66433" lon="0.91341">
        <ele>190</ele>
        <time>2020-12-26T20:44:53.000Z</time>
      </trkpt>
      <trkpt lat="43.66407" lon="0.91347">
        <ele>189</ele>
        <time>2020-12-26T20:44:57.000Z</time>
      </trkpt>
      <trkpt lat="43.66385" lon="0.9135">
        <ele>188</ele>
        <time>2020-12-26T20:45:01.000Z</time>
      </trkpt>
      <trkpt lat="43.66372" lon="0.91357">
        <ele>188</ele>
        <time>2020-12-26T20:45:04.000Z</time>
      </trkpt>
      <trkpt lat="43.66285" lon="0.91426">
        <ele>188</ele>
        <time>2020-12-26T20:45:21.000Z</time>
      </trkpt>
      <trkpt lat="43.66244" lon="0.91438">
        <ele>187</ele>
        <time>2020-12-26T20:45:29.000Z</time>
      </trkpt>
      <trkpt lat="43.66155" lon="0.91442">
        <ele>189</ele>
        <time>2020-12-26T20:45:45.000Z</time>
      </trkpt>
      <trkpt lat="43.6613" lon="0.91451">
        <ele>188</ele>
        <time>2020-12-26T20:45:49.000Z</time>
      </trkpt>
      <trkpt lat="43.66053" lon="0.91496">
        <ele>188</ele>
        <time>2020-12-26T20:46:04.000Z</time>
      </trkpt>
      <trkpt lat="43.65958" lon="0.91545">
        <ele>188</ele>
        <time>2020-12-26T20:46:22.000Z</time>
      </trkpt>
      <trkpt lat="43.65931" lon="0.91552">
        <ele>189</ele>
        <time>2020-12-26T20:46:27.000Z</time>
      </trkpt>
      <trkpt lat="43.65893" lon="0.91548">
        <ele>189</ele>
        <time>2020-12-26T20:46:34.000Z</time>
      </trkpt>
      <trkpt lat="43.65838" lon="0.91537">
        <ele>188</ele>
        <time>2020-12-26T20:46:44.000Z</time>
      </trkpt>
      <trkpt lat="43.65772" lon="0.91494">
        <ele>187</ele>
        <time>2020-12-26T20:46:57.000Z</time>
      </trkpt>
      <trkpt lat="43.65735" lon="0.91442">
        <ele>186</ele>
        <time>2020-12-26T20:47:06.000Z</time>
      </trkpt>
      <trkpt lat="43.6567" lon="0.91327">
        <ele>185</ele>
        <time>2020-12-26T20:47:25.000Z</time>
      </trkpt>
      <trkpt lat="43.65642" lon="0.91282">
        <ele>187</ele>
        <time>2020-12-26T20:47:33.000Z</time>
      </trkpt>
      <trkpt lat="43.65614" lon="0.91253">
        <ele>188</ele>
        <time>2020-12-26T20:47:39.000Z</time>
      </trkpt>
      <trkpt lat="43.65558" lon="0.91209">
        <ele>189</ele>
        <time>2020-12-26T20:47:50.000Z</time>
      </trkpt>
      <trkpt lat="43.65507" lon="0.91162">
        <ele>190</ele>
        <time>2020-12-26T20:48:01.000Z</time>
      </trkpt>
      <trkpt lat="43.65428" lon="0.91073">
        <ele>187</ele>
        <time>2020-12-26T20:48:19.000Z</time>
      </trkpt>
      <trkpt lat="43.65408" lon="0.91039">
        <ele>187</ele>
        <time>2020-12-26T20:48:25.000Z</time>
      </trkpt>
      <trkpt lat="43.65378" lon="0.91007">
        <ele>188</ele>
        <time>2020-12-26T20:48:32.000Z</time>
      </trkpt>
      <trkpt lat="43.65345" lon="0.90993">
        <ele>189</ele>
        <time>2020-12-26T20:48:38.000Z</time>
      </trkpt>
      <trkpt lat="43.65305" lon="0.90987">
        <ele>190</ele>
        <time>2020-12-26T20:48:45.000Z</time>
      </trkpt>
      <trkpt lat="43.65146" lon="0.90973">
        <ele>194</ele>
        <time>2020-12-26T20:49:13.000Z</time>
      </trkpt>
      <trkpt lat="43.65104" lon="0.90964">
        <ele>192</ele>
        <time>2020-12-26T20:49:21.000Z</time>
      </trkpt>
      <trkpt lat="43.65071" lon="0.9096">
        <ele>192</ele>
        <time>2020-12-26T20:49:27.000Z</time>
      </trkpt>
      <trkpt lat="43.65025" lon="0.90939">
        <ele>190</ele>
        <time>2020-12-26T20:49:35.000Z</time>
      </trkpt>
      <trkpt lat="43.64983" lon="0.90913">
        <ele>190</ele>
        <time>2020-12-26T20:49:44.000Z</time>
      </trkpt>
      <trkpt lat="43.6497" lon="0.90907">
        <ele>190</ele>
        <time>2020-12-26T20:49:46.000Z</time>
      </trkpt>
      <trkpt lat="43.64955" lon="0.90894">
        <ele>191</ele>
        <time>2020-12-26T20:49:49.000Z</time>
      </trkpt>
      <trkpt lat="43.64912" lon="0.90853">
        <ele>193</ele>
        <time>2020-12-26T20:49:59.000Z</time>
      </trkpt>
      <trkpt lat="43.64877" lon="0.9081">
        <ele>193</ele>
        <time>2020-12-26T20:50:07.000Z</time>
      </trkpt>
      <trkpt lat="43.6485" lon="0.90771">
        <ele>194</ele>
        <time>2020-12-26T20:50:14.000Z</time>
      </trkpt>
      <trkpt lat="43.648" lon="0.90672">
        <ele>192</ele>
        <time>2020-12-26T20:50:29.000Z</time>
      </trkpt>
      <trkpt lat="43.64748" lon="0.90544">
        <ele>187</ele>
        <time>2020-12-26T20:50:48.000Z</time>
      </trkpt>
      <trkpt lat="43.64704" lon="0.90441">
        <ele>191</ele>
        <time>2020-12-26T20:51:04.000Z</time>
      </trkpt>
      <trkpt lat="43.64688" lon="0.90419">
        <ele>193</ele>
        <time>2020-12-26T20:51:08.000Z</time>
      </trkpt>
      <trkpt lat="43.6467" lon="0.904">
        <ele>194</ele>
        <time>2020-12-26T20:51:12.000Z</time>
      </trkpt>
      <trkpt lat="43.64652" lon="0.90385">
        <ele>195</ele>
        <time>2020-12-26T20:51:15.000Z</time>
      </trkpt>
      <trkpt lat="43.64607" lon="0.90352">
        <ele>197</ele>
        <time>2020-12-26T20:51:25.000Z</time>
      </trkpt>
      <trkpt lat="43.6458" lon="0.90336">
        <ele>198</ele>
        <time>2020-12-26T20:51:30.000Z</time>
      </trkpt>
      <trkpt lat="43.6433" lon="0.90201">
        <ele>191</ele>
        <time>2020-12-26T20:52:18.000Z</time>
      </trkpt>
      <trkpt lat="43.64299" lon="0.90179">
        <ele>190</ele>
        <time>2020-12-26T20:52:24.000Z</time>
      </trkpt>
      <trkpt lat="43.64278" lon="0.90159">
        <ele>189</ele>
        <time>2020-12-26T20:52:28.000Z</time>
      </trkpt>
      <trkpt lat="43.64256" lon="0.90135">
        <ele>187</ele>
        <time>2020-12-26T20:52:33.000Z</time>
      </trkpt>
      <trkpt lat="43.64171" lon="0.90029">
        <ele>189</ele>
        <time>2020-12-26T20:52:54.000Z</time>
      </trkpt>
      <trkpt lat="43.64138" lon="0.89993">
        <ele>190</ele>
        <time>2020-12-26T20:53:01.000Z</time>
      </trkpt>
      <trkpt lat="43.64032" lon="0.89866">
        <ele>190</ele>
        <time>2020-12-26T20:53:26.000Z</time>
      </trkpt>
      <trkpt lat="43.64007" lon="0.89845">
        <ele>190</ele>
        <time>2020-12-26T20:53:31.000Z</time>
      </trkpt>
      <trkpt lat="43.63939" lon="0.89801">
        <ele>192</ele>
        <time>2020-12-26T20:53:45.000Z</time>
      </trkpt>
      <trkpt lat="43.63828" lon="0.89724">
        <ele>193</ele>
        <time>2020-12-26T20:54:07.000Z</time>
      </trkpt>
      <trkpt lat="43.63804" lon="0.8971">
        <ele>194</ele>
        <time>2020-12-26T20:54:11.000Z</time>
      </trkpt>
      <trkpt lat="43.63763" lon="0.8966">
        <ele>195</ele>
        <time>2020-12-26T20:54:21.000Z</time>
      </trkpt>
      <trkpt lat="43.63675" lon="0.89544">
        <ele>199</ele>
        <time>2020-12-26T20:54:43.000Z</time>
      </trkpt>
      <trkpt lat="43.6366" lon="0.89531">
        <ele>199</ele>
        <time>2020-12-26T20:54:46.000Z</time>
      </trkpt>
      <trkpt lat="43.6365" lon="0.89518">
        <ele>199</ele>
        <time>2020-12-26T20:54:48.000Z</time>
      </trkpt>
      <trkpt lat="43.63614" lon="0.89492">
        <ele>198</ele>
        <time>2020-12-26T20:54:56.000Z</time>
      </trkpt>
      <trkpt lat="43.63547" lon="0.89456">
        <ele>196</ele>
        <time>2020-12-26T20:55:08.000Z</time>
      </trkpt>
      <trkpt lat="43.63478" lon="0.8941">
        <ele>194</ele>
        <time>2020-12-26T20:55:22.000Z</time>
      </trkpt>
      <trkpt lat="43.63446" lon="0.8939">
        <ele>193</ele>
        <time>2020-12-26T20:55:28.000Z</time>
      </trkpt>
      <trkpt lat="43.63417" lon="0.8938">
        <ele>193</ele>
        <time>2020-12-26T20:55:34.000Z</time>
      </trkpt>
      <trkpt lat="43.63384" lon="0.89375">
        <ele>194</ele>
        <time>2020-12-26T20:55:39.000Z</time>
      </trkpt>
      <trkpt lat="43.63363" lon="0.89366">
        <ele>194</ele>
        <time>2020-12-26T20:55:43.000Z</time>
      </trkpt>
      <trkpt lat="43.63331" lon="0.89345">
        <ele>195</ele>
        <time>2020-12-26T20:55:50.000Z</time>
      </trkpt>
      <trkpt lat="43.633" lon="0.89311">
        <ele>196</ele>
        <time>2020-12-26T20:55:57.000Z</time>
      </trkpt>
      <trkpt lat="43.63218" lon="0.89184">
        <ele>200</ele>
        <time>2020-12-26T20:56:19.000Z</time>
      </trkpt>
      <trkpt lat="43.63074" lon="0.88982">
        <ele>194</ele>
        <time>2020-12-26T20:56:55.000Z</time>
      </trkpt>
      <trkpt lat="43.62912" lon="0.88765">
        <ele>199</ele>
        <time>2020-12-26T20:57:35.000Z</time>
      </trkpt>
      <trkpt lat="43.6289" lon="0.88744">
        <ele>199</ele>
        <time>2020-12-26T20:57:40.000Z</time>
      </trkpt>
      <trkpt lat="43.62785" lon="0.88684">
        <ele>198</ele>
        <time>2020-12-26T20:58:00.000Z</time>
      </trkpt>
      <trkpt lat="43.62668" lon="0.88622">
        <ele>197</ele>
        <time>2020-12-26T20:58:23.000Z</time>
      </trkpt>
      <trkpt lat="43.62662" lon="0.88617">
        <ele>197</ele>
        <time>2020-12-26T20:58:24.000Z</time>
      </trkpt>
      <trkpt lat="43.62535" lon="0.88552">
        <ele>196</ele>
        <time>2020-12-26T20:58:48.000Z</time>
      </trkpt>
      <trkpt lat="43.62485" lon="0.88523">
        <ele>196</ele>
        <time>2020-12-26T20:58:58.000Z</time>
      </trkpt>
      <trkpt lat="43.62519" lon="0.8839">
        <ele>192</ele>
        <time>2020-12-26T20:59:16.000Z</time>
      </trkpt>
      <trkpt lat="43.62544" lon="0.88275">
        <ele>189</ele>
        <time>2020-12-26T20:59:31.000Z</time>
      </trkpt>
      <trkpt lat="43.62575" lon="0.88161">
        <ele>185</ele>
        <time>2020-12-26T20:59:47.000Z</time>
      </trkpt>
      <trkpt lat="43.62655" lon="0.87986">
        <ele>175</ele>
        <time>2020-12-26T21:00:14.000Z</time>
      </trkpt>
      <trkpt lat="43.62622" lon="0.8795">
        <ele>175</ele>
        <time>2020-12-26T21:00:21.000Z</time>
      </trkpt>
      <trkpt lat="43.62591" lon="0.87911">
        <ele>176</ele>
        <time>2020-12-26T21:00:28.000Z</time>
      </trkpt>
      <trkpt lat="43.62666" lon="0.87824">
        <ele>173</ele>
        <time>2020-12-26T21:00:46.000Z</time>
      </trkpt>
      <trkpt lat="43.6264" lon="0.878">
        <ele>177</ele>
        <time>2020-12-26T21:00:51.000Z</time>
      </trkpt>
      <trkpt lat="43.62696" lon="0.87697">
        <ele>178</ele>
        <time>2020-12-26T21:01:08.000Z</time>
      </trkpt>
      <trkpt lat="43.62611" lon="0.87615">
        <ele>182</ele>
        <time>2020-12-26T21:01:26.000Z</time>
      </trkpt>
      <trkpt lat="43.62576" lon="0.87588">
        <ele>179</ele>
        <time>2020-12-26T21:01:34.000Z</time>
      </trkpt>
      <trkpt lat="43.62533" lon="0.87548">
        <ele>181</ele>
        <time>2020-12-26T21:01:43.000Z</time>
      </trkpt>
      <trkpt lat="43.62509" lon="0.87529">
        <ele>183</ele>
        <time>2020-12-26T21:01:48.000Z</time>
      </trkpt>
      <trkpt lat="43.6254" lon="0.8741">
        <ele>180</ele>
        <time>2020-12-26T21:02:04.000Z</time>
      </trkpt>
      <trkpt lat="43.62596" lon="0.87286">
        <ele>175</ele>
        <time>2020-12-26T21:02:23.000Z</time>
      </trkpt>
      <trkpt lat="43.62608" lon="0.87266">
        <ele>173</ele>
        <time>2020-12-26T21:02:26.000Z</time>
      </trkpt>
      <trkpt lat="43.62644" lon="0.87224">
        <ele>167</ele>
        <time>2020-12-26T21:02:35.000Z</time>
      </trkpt>
      <trkpt lat="43.62691" lon="0.87157">
        <ele>159</ele>
        <time>2020-12-26T21:02:47.000Z</time>
      </trkpt>
      <trkpt lat="43.62532" lon="0.8705">
        <ele>153</ele>
        <time>2020-12-26T21:03:18.000Z</time>
      </trkpt>
      <trkpt lat="43.62567" lon="0.86895">
        <ele>148</ele>
        <time>2020-12-26T21:03:39.000Z</time>
      </trkpt>
      <trkpt lat="43.62569" lon="0.86869">
        <ele>147</ele>
        <time>2020-12-26T21:03:42.000Z</time>
      </trkpt>
      <trkpt lat="43.62568" lon="0.86813">
        <ele>147</ele>
        <time>2020-12-26T21:03:50.000Z</time>
      </trkpt>
      <trkpt lat="43.62511" lon="0.86307">
        <ele>153</ele>
        <time>2020-12-26T21:04:56.000Z</time>
      </trkpt>
      <trkpt lat="43.62511" lon="0.86289">
        <ele>154</ele>
        <time>2020-12-26T21:04:58.000Z</time>
      </trkpt>
      <trkpt lat="43.62515" lon="0.86275">
        <ele>155</ele>
        <time>2020-12-26T21:05:00.000Z</time>
      </trkpt>
      <trkpt lat="43.62338" lon="0.86172">
        <ele>158</ele>
        <time>2020-12-26T21:05:34.000Z</time>
      </trkpt>
      <trkpt lat="43.62299" lon="0.8616">
        <ele>158</ele>
        <time>2020-12-26T21:05:41.000Z</time>
      </trkpt>
      <trkpt lat="43.62035" lon="0.86124">
        <ele>158</ele>
        <time>2020-12-26T21:06:28.000Z</time>
      </trkpt>
      <trkpt lat="43.61913" lon="0.86106">
        <ele>164</ele>
        <time>2020-12-26T21:06:50.000Z</time>
      </trkpt>
      <trkpt lat="43.61881" lon="0.86091">
        <ele>163</ele>
        <time>2020-12-26T21:06:56.000Z</time>
      </trkpt>
      <trkpt lat="43.61852" lon="0.86068">
        <ele>162</ele>
        <time>2020-12-26T21:07:02.000Z</time>
      </trkpt>
      <trkpt lat="43.61575" lon="0.85683">
        <ele>152</ele>
        <time>2020-12-26T21:08:12.000Z</time>
      </trkpt>
      <trkpt lat="43.61541" lon="0.8565">
        <ele>153</ele>
        <time>2020-12-26T21:08:19.000Z</time>
      </trkpt>
      <trkpt lat="43.61241" lon="0.85418">
        <ele>156</ele>
        <time>2020-12-26T21:09:21.000Z</time>
      </trkpt>
      <trkpt lat="43.61218" lon="0.85402">
        <ele>156</ele>
        <time>2020-12-26T21:09:25.000Z</time>
      </trkpt>
      <trkpt lat="43.61193" lon="0.85391">
        <ele>156</ele>
        <time>2020-12-26T21:09:30.000Z</time>
      </trkpt>
      <trkpt lat="43.60727" lon="0.8527">
        <ele>155</ele>
        <time>2020-12-26T21:10:54.000Z</time>
      </trkpt>
      <trkpt lat="43.6071" lon="0.8526">
        <ele>156</ele>
        <time>2020-12-26T21:10:57.000Z</time>
      </trkpt>
      <trkpt lat="43.60692" lon="0.85244">
        <ele>156</ele>
        <time>2020-12-26T21:11:01.000Z</time>
      </trkpt>
      <trkpt lat="43.60091" lon="0.84358">
        <ele>155</ele>
        <time>2020-12-26T21:13:38.000Z</time>
      </trkpt>
      <trkpt lat="43.60038" lon="0.84305">
        <ele>156</ele>
        <time>2020-12-26T21:13:49.000Z</time>
      </trkpt>
      <trkpt lat="43.58957" lon="0.83442">
        <ele>156</ele>
        <time>2020-12-26T21:17:32.000Z</time>
      </trkpt>
      <trkpt lat="43.58895" lon="0.83375">
        <ele>157</ele>
        <time>2020-12-26T21:17:46.000Z</time>
      </trkpt>
      <trkpt lat="43.58855" lon="0.83299">
        <ele>158</ele>
        <time>2020-12-26T21:17:58.000Z</time>
      </trkpt>
      <trkpt lat="43.5878" lon="0.83106">
        <ele>160</ele>
        <time>2020-12-26T21:18:26.000Z</time>
      </trkpt>
      <trkpt lat="43.58671" lon="0.82888">
        <ele>162</ele>
        <time>2020-12-26T21:19:00.000Z</time>
      </trkpt>
      <trkpt lat="43.58616" lon="0.82748">
        <ele>163</ele>
        <time>2020-12-26T21:19:21.000Z</time>
      </trkpt>
      <trkpt lat="43.58427" lon="0.82414">
        <ele>165</ele>
        <time>2020-12-26T21:20:15.000Z</time>
      </trkpt>
      <trkpt lat="43.58362" lon="0.82328">
        <ele>168</ele>
        <time>2020-12-26T21:20:31.000Z</time>
      </trkpt>
      <trkpt lat="43.57463" lon="0.81403">
        <ele>163</ele>
        <time>2020-12-26T21:23:51.000Z</time>
      </trkpt>
      <trkpt lat="43.57019" lon="0.8095">
        <ele>167</ele>
        <time>2020-12-26T21:25:29.000Z</time>
      </trkpt>
      <trkpt lat="43.5698" lon="0.80913">
        <ele>167</ele>
        <time>2020-12-26T21:25:37.000Z</time>
      </trkpt>
      <trkpt lat="43.56785" lon="0.80786">
        <ele>164</ele>
        <time>2020-12-26T21:26:16.000Z</time>
      </trkpt>
      <trkpt lat="43.56748" lon="0.80745">
        <ele>163</ele>
        <time>2020-12-26T21:26:24.000Z</time>
      </trkpt>
      <trkpt lat="43.56349" lon="0.80001">
        <ele>163</ele>
        <time>2020-12-26T21:28:23.000Z</time>
      </trkpt>
      <trkpt lat="43.56305" lon="0.79944">
        <ele>165</ele>
        <time>2020-12-26T21:28:34.000Z</time>
      </trkpt>
      <trkpt lat="43.55917" lon="0.79597">
        <ele>164</ele>
        <time>2020-12-26T21:29:56.000Z</time>
      </trkpt>
      <trkpt lat="43.55919" lon="0.79582">
        <ele>164</ele>
        <time>2020-12-26T21:29:58.000Z</time>
      </trkpt>
      <trkpt lat="43.55913" lon="0.79573">
        <ele>164</ele>
        <time>2020-12-26T21:30:00.000Z</time>
      </trkpt>
      <trkpt lat="43.55907" lon="0.79571">
        <ele>164</ele>
        <time>2020-12-26T21:30:01.000Z</time>
      </trkpt>
      <trkpt lat="43.55898" lon="0.79577">
        <ele>165</ele>
        <time>2020-12-26T21:30:03.000Z</time>
      </trkpt>
      <trkpt lat="43.55876" lon="0.79561">
        <ele>166</ele>
        <time>2020-12-26T21:30:07.000Z</time>
      </trkpt>
      <trkpt lat="43.54294" lon="0.78187">
        <ele>170</ele>
        <time>2020-12-26T21:35:40.000Z</time>
      </trkpt>
      <trkpt lat="43.54253" lon="0.78144">
        <ele>169</ele>
        <time>2020-12-26T21:35:49.000Z</time>
      </trkpt>
      <trkpt lat="43.54232" lon="0.78115">
        <ele>170</ele>
        <time>2020-12-26T21:35:54.000Z</time>
      </trkpt>
      <trkpt lat="43.54032" lon="0.77757">
        <ele>180</ele>
        <time>2020-12-26T21:36:53.000Z</time>
      </trkpt>
      <trkpt lat="43.53788" lon="0.77306">
        <ele>175</ele>
        <time>2020-12-26T21:38:05.000Z</time>
      </trkpt>
      <trkpt lat="43.5372" lon="0.77189">
        <ele>175</ele>
        <time>2020-12-26T21:38:25.000Z</time>
      </trkpt>
      <trkpt lat="43.53681" lon="0.77143">
        <ele>173</ele>
        <time>2020-12-26T21:38:34.000Z</time>
      </trkpt>
      <trkpt lat="43.53392" lon="0.76906">
        <ele>173</ele>
        <time>2020-12-26T21:39:34.000Z</time>
      </trkpt>
      <trkpt lat="43.5335" lon="0.76856">
        <ele>174</ele>
        <time>2020-12-26T21:39:43.000Z</time>
      </trkpt>
      <trkpt lat="43.53255" lon="0.76613">
        <ele>178</ele>
        <time>2020-12-26T21:40:19.000Z</time>
      </trkpt>
      <trkpt lat="43.53232" lon="0.76576">
        <ele>177</ele>
        <time>2020-12-26T21:40:25.000Z</time>
      </trkpt>
      <trkpt lat="43.53202" lon="0.7655">
        <ele>177</ele>
        <time>2020-12-26T21:40:32.000Z</time>
      </trkpt>
      <trkpt lat="43.53187" lon="0.76544">
        <ele>176</ele>
        <time>2020-12-26T21:40:34.000Z</time>
      </trkpt>
      <trkpt lat="43.52701" lon="0.764">
        <ele>188</ele>
        <time>2020-12-26T21:42:03.000Z</time>
      </trkpt>
      <trkpt lat="43.52698" lon="0.76417">
        <ele>187</ele>
        <time>2020-12-26T21:42:05.000Z</time>
      </trkpt>
      <trkpt lat="43.52701" lon="0.764">
        <ele>188</ele>
        <time>2020-12-26T21:42:07.000Z</time>
      </trkpt>
      <trkpt lat="43.52439" lon="0.76325">
        <ele>195</ele>
        <time>2020-12-26T21:42:55.000Z</time>
      </trkpt>
      <trkpt lat="43.52409" lon="0.7632">
        <ele>195</ele>
        <time>2020-12-26T21:43:00.000Z</time>
      </trkpt>
      <trkpt lat="43.52336" lon="0.76329">
        <ele>196</ele>
        <time>2020-12-26T21:43:13.000Z</time>
      </trkpt>
      <trkpt lat="43.52294" lon="0.76329">
        <ele>198</ele>
        <time>2020-12-26T21:43:21.000Z</time>
      </trkpt>
      <trkpt lat="43.52275" lon="0.76325">
        <ele>198</ele>
        <time>2020-12-26T21:43:24.000Z</time>
      </trkpt>
      <trkpt lat="43.52255" lon="0.76314">
        <ele>199</ele>
        <time>2020-12-26T21:43:28.000Z</time>
      </trkpt>
      <trkpt lat="43.52226" lon="0.76293">
        <ele>199</ele>
        <time>2020-12-26T21:43:34.000Z</time>
      </trkpt>
      <trkpt lat="43.52212" lon="0.76275">
        <ele>199</ele>
        <time>2020-12-26T21:43:37.000Z</time>
      </trkpt>
      <trkpt lat="43.52159" lon="0.76237">
        <ele>198</ele>
        <time>2020-12-26T21:43:48.000Z</time>
      </trkpt>
      <trkpt lat="43.52148" lon="0.76217">
        <ele>198</ele>
        <time>2020-12-26T21:43:51.000Z</time>
      </trkpt>
      <trkpt lat="43.52084" lon="0.76016">
        <ele>199</ele>
        <time>2020-12-26T21:44:20.000Z</time>
      </trkpt>
      <trkpt lat="43.52061" lon="0.75976">
        <ele>200</ele>
        <time>2020-12-26T21:44:26.000Z</time>
      </trkpt>
      <trkpt lat="43.52034" lon="0.75943">
        <ele>200</ele>
        <time>2020-12-26T21:44:33.000Z</time>
      </trkpt>
      <trkpt lat="43.52008" lon="0.75919">
        <ele>200</ele>
        <time>2020-12-26T21:44:38.000Z</time>
      </trkpt>
      <trkpt lat="43.52012" lon="0.75875">
        <ele>200</ele>
        <time>2020-12-26T21:44:44.000Z</time>
      </trkpt>
      <trkpt lat="43.52006" lon="0.75577">
        <ele>209</ele>
        <time>2020-12-26T21:45:22.000Z</time>
      </trkpt>
      <trkpt lat="43.52007" lon="0.7555">
        <ele>210</ele>
        <time>2020-12-26T21:45:26.000Z</time>
      </trkpt>
      <trkpt lat="43.52012" lon="0.75527">
        <ele>210</ele>
        <time>2020-12-26T21:45:29.000Z</time>
      </trkpt>
      <trkpt lat="43.52025" lon="0.7551">
        <ele>211</ele>
        <time>2020-12-26T21:45:32.000Z</time>
      </trkpt>
      <trkpt lat="43.52044" lon="0.75493">
        <ele>210</ele>
        <time>2020-12-26T21:45:36.000Z</time>
      </trkpt>
      <trkpt lat="43.52109" lon="0.75442">
        <ele>206</ele>
        <time>2020-12-26T21:45:49.000Z</time>
      </trkpt>
      <trkpt lat="43.52126" lon="0.75421">
        <ele>204</ele>
        <time>2020-12-26T21:45:53.000Z</time>
      </trkpt>
      <trkpt lat="43.52137" lon="0.75395">
        <ele>201</ele>
        <time>2020-12-26T21:45:57.000Z</time>
      </trkpt>
      <trkpt lat="43.52136" lon="0.75368">
        <ele>198</ele>
        <time>2020-12-26T21:46:01.000Z</time>
      </trkpt>
      <trkpt lat="43.52122" lon="0.75337">
        <ele>195</ele>
        <time>2020-12-26T21:46:06.000Z</time>
      </trkpt>
      <trkpt lat="43.52052" lon="0.75266">
        <ele>188</ele>
        <time>2020-12-26T21:46:21.000Z</time>
      </trkpt>
      <trkpt lat="43.52034" lon="0.75241">
        <ele>187</ele>
        <time>2020-12-26T21:46:26.000Z</time>
      </trkpt>
      <trkpt lat="43.52025" lon="0.75218">
        <ele>186</ele>
        <time>2020-12-26T21:46:29.000Z</time>
      </trkpt>
      <trkpt lat="43.52021" lon="0.7519">
        <ele>185</ele>
        <time>2020-12-26T21:46:33.000Z</time>
      </trkpt>
      <trkpt lat="43.52035" lon="0.75026">
        <ele>181</ele>
        <time>2020-12-26T21:46:54.000Z</time>
      </trkpt>
      <trkpt lat="43.52034" lon="0.74968">
        <ele>180</ele>
        <time>2020-12-26T21:47:01.000Z</time>
      </trkpt>
      <trkpt lat="43.52021" lon="0.74871">
        <ele>181</ele>
        <time>2020-12-26T21:47:14.000Z</time>
      </trkpt>
      <trkpt lat="43.52014" lon="0.74801">
        <ele>183</ele>
        <time>2020-12-26T21:47:23.000Z</time>
      </trkpt>
      <trkpt lat="43.52016" lon="0.74755">
        <ele>182</ele>
        <time>2020-12-26T21:47:29.000Z</time>
      </trkpt>
      <trkpt lat="43.52034" lon="0.74631">
        <ele>184</ele>
        <time>2020-12-26T21:47:46.000Z</time>
      </trkpt>
      <trkpt lat="43.52047" lon="0.74481">
        <ele>188</ele>
        <time>2020-12-26T21:48:05.000Z</time>
      </trkpt>
      <trkpt lat="43.52049" lon="0.7444">
        <ele>189</ele>
        <time>2020-12-26T21:48:10.000Z</time>
      </trkpt>
      <trkpt lat="43.52049" lon="0.74411">
        <ele>189</ele>
        <time>2020-12-26T21:48:14.000Z</time>
      </trkpt>
      <trkpt lat="43.52037" lon="0.74315">
        <ele>190</ele>
        <time>2020-12-26T21:48:27.000Z</time>
      </trkpt>
      <trkpt lat="43.52032" lon="0.74296">
        <ele>189</ele>
        <time>2020-12-26T21:48:29.000Z</time>
      </trkpt>
      <trkpt lat="43.52016" lon="0.74275">
        <ele>188</ele>
        <time>2020-12-26T21:48:33.000Z</time>
      </trkpt>
      <trkpt lat="43.51988" lon="0.7426">
        <ele>187</ele>
        <time>2020-12-26T21:48:38.000Z</time>
      </trkpt>
      <trkpt lat="43.51975" lon="0.74245">
        <ele>188</ele>
        <time>2020-12-26T21:48:42.000Z</time>
      </trkpt>
      <trkpt lat="43.51971" lon="0.74229">
        <ele>189</ele>
        <time>2020-12-26T21:48:44.000Z</time>
      </trkpt>
      <trkpt lat="43.51972" lon="0.74029">
        <ele>200</ele>
        <time>2020-12-26T21:49:10.000Z</time>
      </trkpt>
      <trkpt lat="43.51969" lon="0.73877">
        <ele>211</ele>
        <time>2020-12-26T21:49:29.000Z</time>
      </trkpt>
      <trkpt lat="43.51961" lon="0.73818">
        <ele>213</ele>
        <time>2020-12-26T21:49:37.000Z</time>
      </trkpt>
      <trkpt lat="43.51902" lon="0.73595">
        <ele>222</ele>
        <time>2020-12-26T21:50:07.000Z</time>
      </trkpt>
      <trkpt lat="43.51892" lon="0.73545">
        <ele>222</ele>
        <time>2020-12-26T21:50:14.000Z</time>
      </trkpt>
      <trkpt lat="43.51895" lon="0.73111">
        <ele>235</ele>
        <time>2020-12-26T21:51:10.000Z</time>
      </trkpt>
      <trkpt lat="43.51891" lon="0.73065">
        <ele>233</ele>
        <time>2020-12-26T21:51:16.000Z</time>
      </trkpt>
      <trkpt lat="43.5188" lon="0.73017">
        <ele>232</ele>
        <time>2020-12-26T21:51:23.000Z</time>
      </trkpt>
      <trkpt lat="43.51873" lon="0.72941">
        <ele>232</ele>
        <time>2020-12-26T21:51:33.000Z</time>
      </trkpt>
      <trkpt lat="43.51858" lon="0.72698">
        <ele>239</ele>
        <time>2020-12-26T21:52:04.000Z</time>
      </trkpt>
      <trkpt lat="43.51829" lon="0.72436">
        <ele>247</ele>
        <time>2020-12-26T21:52:38.000Z</time>
      </trkpt>
      <trkpt lat="43.51801" lon="0.72099">
        <ele>253</ele>
        <time>2020-12-26T21:53:22.000Z</time>
      </trkpt>
      <trkpt lat="43.5179" lon="0.72058">
        <ele>254</ele>
        <time>2020-12-26T21:53:28.000Z</time>
      </trkpt>
      <trkpt lat="43.51619" lon="0.71595">
        <ele>267</ele>
        <time>2020-12-26T21:54:35.000Z</time>
      </trkpt>
      <trkpt lat="43.51615" lon="0.71561">
        <ele>269</ele>
        <time>2020-12-26T21:54:39.000Z</time>
      </trkpt>
      <trkpt lat="43.51616" lon="0.7153">
        <ele>272</ele>
        <time>2020-12-26T21:54:43.000Z</time>
      </trkpt>
      <trkpt lat="43.51625" lon="0.71485">
        <ele>275</ele>
        <time>2020-12-26T21:54:49.000Z</time>
      </trkpt>
      <trkpt lat="43.51665" lon="0.7132">
        <ele>281</ele>
        <time>2020-12-26T21:55:12.000Z</time>
      </trkpt>
      <trkpt lat="43.51778" lon="0.70943">
        <ele>277</ele>
        <time>2020-12-26T21:56:04.000Z</time>
      </trkpt>
      <trkpt lat="43.51783" lon="0.70909">
        <ele>276</ele>
        <time>2020-12-26T21:56:09.000Z</time>
      </trkpt>
      <trkpt lat="43.5178" lon="0.70828">
        <ele>273</ele>
        <time>2020-12-26T21:56:19.000Z</time>
      </trkpt>
      <trkpt lat="43.51773" lon="0.70788">
        <ele>272</ele>
        <time>2020-12-26T21:56:24.000Z</time>
      </trkpt>
      <trkpt lat="43.51764" lon="0.70755">
        <ele>271</ele>
        <time>2020-12-26T21:56:29.000Z</time>
      </trkpt>
      <trkpt lat="43.51757" lon="0.70722">
        <ele>270</ele>
        <time>2020-12-26T21:56:33.000Z</time>
      </trkpt>
      <trkpt lat="43.51756" lon="0.70688">
        <ele>269</ele>
        <time>2020-12-26T21:56:38.000Z</time>
      </trkpt>
      <trkpt lat="43.51787" lon="0.70277">
        <ele>252</ele>
        <time>2020-12-26T21:57:31.000Z</time>
      </trkpt>
      <trkpt lat="43.51802" lon="0.70204">
        <ele>249</ele>
        <time>2020-12-26T21:57:41.000Z</time>
      </trkpt>
      <trkpt lat="43.51816" lon="0.70149">
        <ele>243</ele>
        <time>2020-12-26T21:57:48.000Z</time>
      </trkpt>
      <trkpt lat="43.51838" lon="0.70113">
        <ele>238</ele>
        <time>2020-12-26T21:57:55.000Z</time>
      </trkpt>
      <trkpt lat="43.51869" lon="0.70088">
        <ele>235</ele>
        <time>2020-12-26T21:58:01.000Z</time>
      </trkpt>
      <trkpt lat="43.51892" lon="0.70065">
        <ele>235</ele>
        <time>2020-12-26T21:58:06.000Z</time>
      </trkpt>
      <trkpt lat="43.51902" lon="0.7004">
        <ele>236</ele>
        <time>2020-12-26T21:58:10.000Z</time>
      </trkpt>
      <trkpt lat="43.519" lon="0.70013">
        <ele>236</ele>
        <time>2020-12-26T21:58:13.000Z</time>
      </trkpt>
      <trkpt lat="43.51881" lon="0.69918">
        <ele>237</ele>
        <time>2020-12-26T21:58:26.000Z</time>
      </trkpt>
      <trkpt lat="43.51859" lon="0.69767">
        <ele>232</ele>
        <time>2020-12-26T21:58:46.000Z</time>
      </trkpt>
      <trkpt lat="43.51848" lon="0.69679">
        <ele>227</ele>
        <time>2020-12-26T21:58:57.000Z</time>
      </trkpt>
      <trkpt lat="43.51842" lon="0.69642">
        <ele>226</ele>
        <time>2020-12-26T21:59:02.000Z</time>
      </trkpt>
      <trkpt lat="43.51832" lon="0.69615">
        <ele>224</ele>
        <time>2020-12-26T21:59:06.000Z</time>
      </trkpt>
      <trkpt lat="43.5181" lon="0.6958">
        <ele>221</ele>
        <time>2020-12-26T21:59:12.000Z</time>
      </trkpt>
      <trkpt lat="43.51788" lon="0.69523">
        <ele>218</ele>
        <time>2020-12-26T21:59:20.000Z</time>
      </trkpt>
      <trkpt lat="43.51773" lon="0.69464">
        <ele>214</ele>
        <time>2020-12-26T21:59:28.000Z</time>
      </trkpt>
      <trkpt lat="43.51772" lon="0.6944">
        <ele>213</ele>
        <time>2020-12-26T21:59:32.000Z</time>
      </trkpt>
      <trkpt lat="43.51777" lon="0.6941">
        <ele>213</ele>
        <time>2020-12-26T21:59:36.000Z</time>
      </trkpt>
      <trkpt lat="43.51791" lon="0.69351">
        <ele>211</ele>
        <time>2020-12-26T21:59:44.000Z</time>
      </trkpt>
      <trkpt lat="43.51803" lon="0.69295">
        <ele>210</ele>
        <time>2020-12-26T21:59:51.000Z</time>
      </trkpt>
      <trkpt lat="43.51808" lon="0.69026">
        <ele>203</ele>
        <time>2020-12-26T22:00:26.000Z</time>
      </trkpt>
      <trkpt lat="43.51822" lon="0.69031">
        <ele>204</ele>
        <time>2020-12-26T22:00:28.000Z</time>
      </trkpt>
      <trkpt lat="43.51808" lon="0.69026">
        <ele>203</ele>
        <time>2020-12-26T22:00:31.000Z</time>
      </trkpt>
      <trkpt lat="43.51799" lon="0.68771">
        <ele>206</ele>
        <time>2020-12-26T22:01:04.000Z</time>
      </trkpt>
      <trkpt lat="43.51799" lon="0.68696">
        <ele>201</ele>
        <time>2020-12-26T22:01:14.000Z</time>
      </trkpt>
      <trkpt lat="43.51806" lon="0.68609">
        <ele>195</ele>
        <time>2020-12-26T22:01:25.000Z</time>
      </trkpt>
      <trkpt lat="43.51825" lon="0.68599">
        <ele>195</ele>
        <time>2020-12-26T22:01:28.000Z</time>
      </trkpt>
      <trkpt lat="43.5188" lon="0.68597">
        <ele>195</ele>
        <time>2020-12-26T22:01:38.000Z</time>
      </trkpt>
      <trkpt lat="43.51984" lon="0.68626">
        <ele>195</ele>
        <time>2020-12-26T22:01:57.000Z</time>
      </trkpt>
      <trkpt lat="43.52085" lon="0.68663">
        <ele>196</ele>
        <time>2020-12-26T22:02:16.000Z</time>
      </trkpt>
      <trkpt lat="43.52179" lon="0.68653">
        <ele>196</ele>
        <time>2020-12-26T22:02:33.000Z</time>
      </trkpt>
      <trkpt lat="43.52262" lon="0.68631">
        <ele>194</ele>
        <time>2020-12-26T22:02:48.000Z</time>
      </trkpt>
      <trkpt lat="43.52379" lon="0.6863">
        <ele>191</ele>
        <time>2020-12-26T22:03:08.000Z</time>
      </trkpt>
      <trkpt lat="43.52471" lon="0.68648">
        <ele>190</ele>
        <time>2020-12-26T22:03:25.000Z</time>
      </trkpt>
      <trkpt lat="43.53257" lon="0.6877">
        <ele>184</ele>
        <time>2020-12-26T22:05:46.000Z</time>
      </trkpt>
      <trkpt lat="43.5334" lon="0.68794">
        <ele>190</ele>
        <time>2020-12-26T22:06:01.000Z</time>
      </trkpt>
      <trkpt lat="43.53441" lon="0.68853">
        <ele>192</ele>
        <time>2020-12-26T22:06:20.000Z</time>
      </trkpt>
      <trkpt lat="43.53544" lon="0.68904">
        <ele>188</ele>
        <time>2020-12-26T22:06:40.000Z</time>
      </trkpt>
      <trkpt lat="43.53748" lon="0.68961">
        <ele>187</ele>
        <time>2020-12-26T22:07:17.000Z</time>
      </trkpt>
      <trkpt lat="43.53851" lon="0.6902">
        <ele>187</ele>
        <time>2020-12-26T22:07:37.000Z</time>
      </trkpt>
      <trkpt lat="43.54063" lon="0.69217">
        <ele>183</ele>
        <time>2020-12-26T22:08:22.000Z</time>
      </trkpt>
      <trkpt lat="43.54204" lon="0.6938">
        <ele>186</ele>
        <time>2020-12-26T22:08:55.000Z</time>
      </trkpt>
      <trkpt lat="43.54232" lon="0.69403">
        <ele>186</ele>
        <time>2020-12-26T22:09:01.000Z</time>
      </trkpt>
      <trkpt lat="43.5471" lon="0.69608">
        <ele>187</ele>
        <time>2020-12-26T22:10:30.000Z</time>
      </trkpt>
      <trkpt lat="43.54835" lon="0.69668">
        <ele>187</ele>
        <time>2020-12-26T22:10:53.000Z</time>
      </trkpt>
      <trkpt lat="43.54894" lon="0.69714">
        <ele>187</ele>
        <time>2020-12-26T22:11:05.000Z</time>
      </trkpt>
      <trkpt lat="43.54964" lon="0.69791">
        <ele>183</ele>
        <time>2020-12-26T22:11:21.000Z</time>
      </trkpt>
      <trkpt lat="43.5503" lon="0.69908">
        <ele>180</ele>
        <time>2020-12-26T22:11:40.000Z</time>
      </trkpt>
      <trkpt lat="43.55263" lon="0.70395">
        <ele>187</ele>
        <time>2020-12-26T22:12:56.000Z</time>
      </trkpt>
      <trkpt lat="43.55301" lon="0.705">
        <ele>187</ele>
        <time>2020-12-26T22:13:11.000Z</time>
      </trkpt>
      <trkpt lat="43.55317" lon="0.70526">
        <ele>186</ele>
        <time>2020-12-26T22:13:15.000Z</time>
      </trkpt>
      <trkpt lat="43.55359" lon="0.70575">
        <ele>185</ele>
        <time>2020-12-26T22:13:25.000Z</time>
      </trkpt>
      <trkpt lat="43.55383" lon="0.70586">
        <ele>185</ele>
        <time>2020-12-26T22:13:29.000Z</time>
      </trkpt>
      <trkpt lat="43.55407" lon="0.70585">
        <ele>184</ele>
        <time>2020-12-26T22:13:34.000Z</time>
      </trkpt>
      <trkpt lat="43.55438" lon="0.7058">
        <ele>181</ele>
        <time>2020-12-26T22:13:39.000Z</time>
      </trkpt>
      <trkpt lat="43.55456" lon="0.70583">
        <ele>180</ele>
        <time>2020-12-26T22:13:42.000Z</time>
      </trkpt>
      <trkpt lat="43.55496" lon="0.70607">
        <ele>179</ele>
        <time>2020-12-26T22:13:50.000Z</time>
      </trkpt>
      <trkpt lat="43.55547" lon="0.70644">
        <ele>180</ele>
        <time>2020-12-26T22:14:00.000Z</time>
      </trkpt>
      <trkpt lat="43.55609" lon="0.70695">
        <ele>179</ele>
        <time>2020-12-26T22:14:13.000Z</time>
      </trkpt>
      <trkpt lat="43.55637" lon="0.70729">
        <ele>178</ele>
        <time>2020-12-26T22:14:20.000Z</time>
      </trkpt>
      <trkpt lat="43.5568" lon="0.70818">
        <ele>176</ele>
        <time>2020-12-26T22:14:34.000Z</time>
      </trkpt>
      <trkpt lat="43.55708" lon="0.70897">
        <ele>174</ele>
        <time>2020-12-26T22:14:45.000Z</time>
      </trkpt>
      <trkpt lat="43.55749" lon="0.70969">
        <ele>175</ele>
        <time>2020-12-26T22:14:57.000Z</time>
      </trkpt>
      <trkpt lat="43.55799" lon="0.71024">
        <ele>175</ele>
        <time>2020-12-26T22:15:08.000Z</time>
      </trkpt>
      <trkpt lat="43.56315" lon="0.714">
        <ele>177</ele>
        <time>2020-12-26T22:16:52.000Z</time>
      </trkpt>
      <trkpt lat="43.56484" lon="0.71515">
        <ele>179</ele>
        <time>2020-12-26T22:17:26.000Z</time>
      </trkpt>
      <trkpt lat="43.56679" lon="0.71664">
        <ele>176</ele>
        <time>2020-12-26T22:18:05.000Z</time>
      </trkpt>
      <trkpt lat="43.56861" lon="0.71852">
        <ele>181</ele>
        <time>2020-12-26T22:18:46.000Z</time>
      </trkpt>
      <trkpt lat="43.5715" lon="0.72165">
        <ele>180</ele>
        <time>2020-12-26T22:19:51.000Z</time>
      </trkpt>
      <trkpt lat="43.57218" lon="0.72253">
        <ele>186</ele>
        <time>2020-12-26T22:20:08.000Z</time>
      </trkpt>
      <trkpt lat="43.57234" lon="0.72251">
        <ele>185</ele>
        <time>2020-12-26T22:20:11.000Z</time>
      </trkpt>
      <trkpt lat="43.57251" lon="0.72251">
        <ele>184</ele>
        <time>2020-12-26T22:20:14.000Z</time>
      </trkpt>
      <trkpt lat="43.57267" lon="0.72245">
        <ele>183</ele>
        <time>2020-12-26T22:20:16.000Z</time>
      </trkpt>
      <trkpt lat="43.57286" lon="0.72248">
        <ele>182</ele>
        <time>2020-12-26T22:20:20.000Z</time>
      </trkpt>
      <trkpt lat="43.57327" lon="0.72266">
        <ele>180</ele>
        <time>2020-12-26T22:20:28.000Z</time>
      </trkpt>
      <trkpt lat="43.57346" lon="0.72264">
        <ele>180</ele>
        <time>2020-12-26T22:20:31.000Z</time>
      </trkpt>
      <trkpt lat="43.57359" lon="0.72253">
        <ele>181</ele>
        <time>2020-12-26T22:20:34.000Z</time>
      </trkpt>
      <trkpt lat="43.5738" lon="0.72252">
        <ele>182</ele>
        <time>2020-12-26T22:20:37.000Z</time>
      </trkpt>
      <trkpt lat="43.57399" lon="0.72244">
        <ele>183</ele>
        <time>2020-12-26T22:20:41.000Z</time>
      </trkpt>
      <trkpt lat="43.57412" lon="0.72244">
        <ele>184</ele>
        <time>2020-12-26T22:20:43.000Z</time>
      </trkpt>
      <trkpt lat="43.57423" lon="0.72257">
        <ele>187</ele>
        <time>2020-12-26T22:20:46.000Z</time>
      </trkpt>
      <trkpt lat="43.57507" lon="0.72233">
        <ele>193</ele>
        <time>2020-12-26T22:21:01.000Z</time>
      </trkpt>
      <trkpt lat="43.57512" lon="0.72235">
        <ele>194</ele>
        <time>2020-12-26T22:21:02.000Z</time>
      </trkpt>
      <trkpt lat="43.5752" lon="0.72233">
        <ele>194</ele>
        <time>2020-12-26T22:21:03.000Z</time>
      </trkpt>
      <trkpt lat="43.57599" lon="0.72228">
        <ele>194</ele>
        <time>2020-12-26T22:21:18.000Z</time>
      </trkpt>
      <trkpt lat="43.57618" lon="0.72235">
        <ele>194</ele>
        <time>2020-12-26T22:21:21.000Z</time>
      </trkpt>
      <trkpt lat="43.57639" lon="0.72246">
        <ele>196</ele>
        <time>2020-12-26T22:21:25.000Z</time>
      </trkpt>
      <trkpt lat="43.57669" lon="0.72266">
        <ele>196</ele>
        <time>2020-12-26T22:21:31.000Z</time>
      </trkpt>
      <trkpt lat="43.57703" lon="0.72297">
        <ele>192</ele>
        <time>2020-12-26T22:21:38.000Z</time>
      </trkpt>
      <trkpt lat="43.57713" lon="0.72315">
        <ele>191</ele>
        <time>2020-12-26T22:21:41.000Z</time>
      </trkpt>
      <trkpt lat="43.5774" lon="0.72393">
        <ele>187</ele>
        <time>2020-12-26T22:21:52.000Z</time>
      </trkpt>
      <trkpt lat="43.57753" lon="0.72423">
        <ele>185</ele>
        <time>2020-12-26T22:21:57.000Z</time>
      </trkpt>
      <trkpt lat="43.57776" lon="0.72484">
        <ele>185</ele>
        <time>2020-12-26T22:22:06.000Z</time>
      </trkpt>
      <trkpt lat="43.578" lon="0.72528">
        <ele>183</ele>
        <time>2020-12-26T22:22:13.000Z</time>
      </trkpt>
      <trkpt lat="43.57872" lon="0.72626">
        <ele>179</ele>
        <time>2020-12-26T22:22:31.000Z</time>
      </trkpt>
      <trkpt lat="43.5789" lon="0.72657">
        <ele>180</ele>
        <time>2020-12-26T22:22:36.000Z</time>
      </trkpt>
      <trkpt lat="43.57928" lon="0.72751">
        <ele>179</ele>
        <time>2020-12-26T22:22:50.000Z</time>
      </trkpt>
      <trkpt lat="43.57933" lon="0.72767">
        <ele>179</ele>
        <time>2020-12-26T22:22:52.000Z</time>
      </trkpt>
      <trkpt lat="43.57939" lon="0.728">
        <ele>180</ele>
        <time>2020-12-26T22:22:56.000Z</time>
      </trkpt>
      <trkpt lat="43.57943" lon="0.72835">
        <ele>182</ele>
        <time>2020-12-26T22:23:01.000Z</time>
      </trkpt>
      <trkpt lat="43.57952" lon="0.72867">
        <ele>183</ele>
        <time>2020-12-26T22:23:05.000Z</time>
      </trkpt>
      <trkpt lat="43.57969" lon="0.72894">
        <ele>183</ele>
        <time>2020-12-26T22:23:10.000Z</time>
      </trkpt>
      <trkpt lat="43.5798" lon="0.72906">
        <ele>184</ele>
        <time>2020-12-26T22:23:12.000Z</time>
      </trkpt>
      <trkpt lat="43.58019" lon="0.72938">
        <ele>186</ele>
        <time>2020-12-26T22:23:21.000Z</time>
      </trkpt>
      <trkpt lat="43.58047" lon="0.72957">
        <ele>186</ele>
        <time>2020-12-26T22:23:26.000Z</time>
      </trkpt>
      <trkpt lat="43.58124" lon="0.73">
        <ele>185</ele>
        <time>2020-12-26T22:23:41.000Z</time>
      </trkpt>
      <trkpt lat="43.58154" lon="0.73022">
        <ele>184</ele>
        <time>2020-12-26T22:23:47.000Z</time>
      </trkpt>
      <trkpt lat="43.58183" lon="0.73049">
        <ele>183</ele>
        <time>2020-12-26T22:23:53.000Z</time>
      </trkpt>
      <trkpt lat="43.58223" lon="0.73094">
        <ele>181</ele>
        <time>2020-12-26T22:24:02.000Z</time>
      </trkpt>
      <trkpt lat="43.58233" lon="0.73111">
        <ele>181</ele>
        <time>2020-12-26T22:24:05.000Z</time>
      </trkpt>
      <trkpt lat="43.5824" lon="0.7313">
        <ele>181</ele>
        <time>2020-12-26T22:24:08.000Z</time>
      </trkpt>
      <trkpt lat="43.58287" lon="0.73358">
        <ele>180</ele>
        <time>2020-12-26T22:24:38.000Z</time>
      </trkpt>
      <trkpt lat="43.58299" lon="0.73397">
        <ele>179</ele>
        <time>2020-12-26T22:24:44.000Z</time>
      </trkpt>
      <trkpt lat="43.58307" lon="0.73416">
        <ele>178</ele>
        <time>2020-12-26T22:24:47.000Z</time>
      </trkpt>
      <trkpt lat="43.58317" lon="0.73433">
        <ele>178</ele>
        <time>2020-12-26T22:24:50.000Z</time>
      </trkpt>
      <trkpt lat="43.5833" lon="0.73449">
        <ele>177</ele>
        <time>2020-12-26T22:24:53.000Z</time>
      </trkpt>
      <trkpt lat="43.58345" lon="0.73463">
        <ele>176</ele>
        <time>2020-12-26T22:24:56.000Z</time>
      </trkpt>
      <trkpt lat="43.58571" lon="0.73652">
        <ele>168</ele>
        <time>2020-12-26T22:25:43.000Z</time>
      </trkpt>
      <trkpt lat="43.58581" lon="0.73664">
        <ele>168</ele>
        <time>2020-12-26T22:25:45.000Z</time>
      </trkpt>
      <trkpt lat="43.58596" lon="0.73691">
        <ele>168</ele>
        <time>2020-12-26T22:25:50.000Z</time>
      </trkpt>
      <trkpt lat="43.5866" lon="0.73853">
        <ele>170</ele>
        <time>2020-12-26T22:26:13.000Z</time>
      </trkpt>
      <trkpt lat="43.58703" lon="0.73916">
        <ele>170</ele>
        <time>2020-12-26T22:26:25.000Z</time>
      </trkpt>
      <trkpt lat="43.58779" lon="0.74036">
        <ele>170</ele>
        <time>2020-12-26T22:26:45.000Z</time>
      </trkpt>
      <trkpt lat="43.58812" lon="0.74077">
        <ele>172</ele>
        <time>2020-12-26T22:26:53.000Z</time>
      </trkpt>
      <trkpt lat="43.58858" lon="0.74102">
        <ele>173</ele>
        <time>2020-12-26T22:27:02.000Z</time>
      </trkpt>
      <trkpt lat="43.59133" lon="0.74179">
        <ele>165</ele>
        <time>2020-12-26T22:27:52.000Z</time>
      </trkpt>
      <trkpt lat="43.59161" lon="0.74193">
        <ele>167</ele>
        <time>2020-12-26T22:27:57.000Z</time>
      </trkpt>
      <trkpt lat="43.59182" lon="0.74218">
        <ele>169</ele>
        <time>2020-12-26T22:28:02.000Z</time>
      </trkpt>
      <trkpt lat="43.59203" lon="0.74254">
        <ele>170</ele>
        <time>2020-12-26T22:28:08.000Z</time>
      </trkpt>
      <trkpt lat="43.59237" lon="0.74341">
        <ele>170</ele>
        <time>2020-12-26T22:28:21.000Z</time>
      </trkpt>
      <trkpt lat="43.59272" lon="0.7442">
        <ele>171</ele>
        <time>2020-12-26T22:28:33.000Z</time>
      </trkpt>
      <trkpt lat="43.59291" lon="0.7445">
        <ele>173</ele>
        <time>2020-12-26T22:28:38.000Z</time>
      </trkpt>
      <trkpt lat="43.59345" lon="0.74492">
        <ele>172</ele>
        <time>2020-12-26T22:28:49.000Z</time>
      </trkpt>
      <trkpt lat="43.59363" lon="0.74512">
        <ele>171</ele>
        <time>2020-12-26T22:28:53.000Z</time>
      </trkpt>
      <trkpt lat="43.59486" lon="0.74707">
        <ele>171</ele>
        <time>2020-12-26T22:29:26.000Z</time>
      </trkpt>
      <trkpt lat="43.59531" lon="0.74787">
        <ele>171</ele>
        <time>2020-12-26T22:29:39.000Z</time>
      </trkpt>
      <trkpt lat="43.59589" lon="0.74921">
        <ele>168</ele>
        <time>2020-12-26T22:29:59.000Z</time>
      </trkpt>
      <trkpt lat="43.59616" lon="0.74991">
        <ele>168</ele>
        <time>2020-12-26T22:30:10.000Z</time>
      </trkpt>
      <trkpt lat="43.59662" lon="0.75163">
        <ele>164</ele>
        <time>2020-12-26T22:30:33.000Z</time>
      </trkpt>
      <trkpt lat="43.59678" lon="0.752">
        <ele>166</ele>
        <time>2020-12-26T22:30:39.000Z</time>
      </trkpt>
      <trkpt lat="43.59703" lon="0.75234">
        <ele>168</ele>
        <time>2020-12-26T22:30:45.000Z</time>
      </trkpt>
      <trkpt lat="43.59787" lon="0.75298">
        <ele>169</ele>
        <time>2020-12-26T22:31:02.000Z</time>
      </trkpt>
      <trkpt lat="43.59843" lon="0.75355">
        <ele>167</ele>
        <time>2020-12-26T22:31:14.000Z</time>
      </trkpt>
      <trkpt lat="43.60023" lon="0.75609">
        <ele>171</ele>
        <time>2020-12-26T22:32:00.000Z</time>
      </trkpt>
      <trkpt lat="43.60048" lon="0.75629">
        <ele>170</ele>
        <time>2020-12-26T22:32:05.000Z</time>
      </trkpt>
      <trkpt lat="43.60099" lon="0.75646">
        <ele>169</ele>
        <time>2020-12-26T22:32:15.000Z</time>
      </trkpt>
      <trkpt lat="43.60181" lon="0.75648">
        <ele>163</ele>
        <time>2020-12-26T22:32:29.000Z</time>
      </trkpt>
      <trkpt lat="43.60241" lon="0.75666">
        <ele>160</ele>
        <time>2020-12-26T22:32:40.000Z</time>
      </trkpt>
      <trkpt lat="43.60271" lon="0.75687">
        <ele>160</ele>
        <time>2020-12-26T22:32:46.000Z</time>
      </trkpt>
      <trkpt lat="43.60298" lon="0.75727">
        <ele>161</ele>
        <time>2020-12-26T22:32:53.000Z</time>
      </trkpt>
      <trkpt lat="43.60399" lon="0.75915">
        <ele>162</ele>
        <time>2020-12-26T22:33:23.000Z</time>
      </trkpt>
      <trkpt lat="43.60501" lon="0.76084">
        <ele>162</ele>
        <time>2020-12-26T22:33:52.000Z</time>
      </trkpt>
      <trkpt lat="43.60575" lon="0.7619">
        <ele>161</ele>
        <time>2020-12-26T22:34:11.000Z</time>
      </trkpt>
      <trkpt lat="43.60714" lon="0.76351">
        <ele>159</ele>
        <time>2020-12-26T22:34:43.000Z</time>
      </trkpt>
      <trkpt lat="43.60749" lon="0.76386">
        <ele>158</ele>
        <time>2020-12-26T22:34:51.000Z</time>
      </trkpt>
      <trkpt lat="43.60765" lon="0.76396">
        <ele>158</ele>
        <time>2020-12-26T22:34:54.000Z</time>
      </trkpt>
      <trkpt lat="43.60804" lon="0.764">
        <ele>160</ele>
        <time>2020-12-26T22:35:01.000Z</time>
      </trkpt>
      <trkpt lat="43.60838" lon="0.76413">
        <ele>161</ele>
        <time>2020-12-26T22:35:07.000Z</time>
      </trkpt>
      <trkpt lat="43.6086" lon="0.76427">
        <ele>161</ele>
        <time>2020-12-26T22:35:11.000Z</time>
      </trkpt>
      <trkpt lat="43.60888" lon="0.76461">
        <ele>162</ele>
        <time>2020-12-26T22:35:18.000Z</time>
      </trkpt>
      <trkpt lat="43.60917" lon="0.7648">
        <ele>162</ele>
        <time>2020-12-26T22:35:24.000Z</time>
      </trkpt>
      <trkpt lat="43.60969" lon="0.76505">
        <ele>163</ele>
        <time>2020-12-26T22:35:34.000Z</time>
      </trkpt>
      <trkpt lat="43.61018" lon="0.76522">
        <ele>163</ele>
        <time>2020-12-26T22:35:42.000Z</time>
      </trkpt>
      <trkpt lat="43.61046" lon="0.76536">
        <ele>162</ele>
        <time>2020-12-26T22:35:48.000Z</time>
      </trkpt>
      <trkpt lat="43.61055" lon="0.76549">
        <ele>162</ele>
        <time>2020-12-26T22:35:50.000Z</time>
      </trkpt>
      <trkpt lat="43.61062" lon="0.76565">
        <ele>163</ele>
        <time>2020-12-26T22:35:53.000Z</time>
      </trkpt>
      <trkpt lat="43.61082" lon="0.76639">
        <ele>165</ele>
        <time>2020-12-26T22:36:03.000Z</time>
      </trkpt>
      <trkpt lat="43.61095" lon="0.76663">
        <ele>165</ele>
        <time>2020-12-26T22:36:07.000Z</time>
      </trkpt>
      <trkpt lat="43.61178" lon="0.76729">
        <ele>164</ele>
        <time>2020-12-26T22:36:24.000Z</time>
      </trkpt>
      <trkpt lat="43.61235" lon="0.7679">
        <ele>163</ele>
        <time>2020-12-26T22:36:36.000Z</time>
      </trkpt>
      <trkpt lat="43.61328" lon="0.76874">
        <ele>160</ele>
        <time>2020-12-26T22:36:56.000Z</time>
      </trkpt>
      <trkpt lat="43.61352" lon="0.76906">
        <ele>161</ele>
        <time>2020-12-26T22:37:02.000Z</time>
      </trkpt>
      <trkpt lat="43.6138" lon="0.76964">
        <ele>161</ele>
        <time>2020-12-26T22:37:11.000Z</time>
      </trkpt>
      <trkpt lat="43.61388" lon="0.76976">
        <ele>161</ele>
        <time>2020-12-26T22:37:13.000Z</time>
      </trkpt>
      <trkpt lat="43.61403" lon="0.7699">
        <ele>160</ele>
        <time>2020-12-26T22:37:16.000Z</time>
      </trkpt>
      <trkpt lat="43.61454" lon="0.77008">
        <ele>158</ele>
        <time>2020-12-26T22:37:26.000Z</time>
      </trkpt>
      <trkpt lat="43.61517" lon="0.77025">
        <ele>157</ele>
        <time>2020-12-26T22:37:37.000Z</time>
      </trkpt>
      <trkpt lat="43.61527" lon="0.77023">
        <ele>157</ele>
        <time>2020-12-26T22:37:39.000Z</time>
      </trkpt>
      <trkpt lat="43.61536" lon="0.77017">
        <ele>157</ele>
        <time>2020-12-26T22:37:41.000Z</time>
      </trkpt>
      <trkpt lat="43.61571" lon="0.76975">
        <ele>157</ele>
        <time>2020-12-26T22:37:49.000Z</time>
      </trkpt>
      <trkpt lat="43.6166" lon="0.76882">
        <ele>155</ele>
        <time>2020-12-26T22:38:09.000Z</time>
      </trkpt>
      <trkpt lat="43.61668" lon="0.7687">
        <ele>154</ele>
        <time>2020-12-26T22:38:11.000Z</time>
      </trkpt>
      <trkpt lat="43.6177" lon="0.76704">
        <ele>156</ele>
        <time>2020-12-26T22:38:39.000Z</time>
      </trkpt>
      <trkpt lat="43.61775" lon="0.76698">
        <ele>157</ele>
        <time>2020-12-26T22:38:40.000Z</time>
      </trkpt>
      <trkpt lat="43.61788" lon="0.7669">
        <ele>158</ele>
        <time>2020-12-26T22:38:43.000Z</time>
      </trkpt>
      <trkpt lat="43.618" lon="0.76692">
        <ele>159</ele>
        <time>2020-12-26T22:38:45.000Z</time>
      </trkpt>
      <trkpt lat="43.61819" lon="0.76703">
        <ele>160</ele>
        <time>2020-12-26T22:38:49.000Z</time>
      </trkpt>
      <trkpt lat="43.61886" lon="0.76778">
        <ele>157</ele>
        <time>2020-12-26T22:39:04.000Z</time>
      </trkpt>
      <trkpt lat="43.61922" lon="0.76808">
        <ele>156</ele>
        <time>2020-12-26T22:39:11.000Z</time>
      </trkpt>
      <trkpt lat="43.62042" lon="0.76877">
        <ele>154</ele>
        <time>2020-12-26T22:39:35.000Z</time>
      </trkpt>
      <trkpt lat="43.62087" lon="0.76892">
        <ele>153</ele>
        <time>2020-12-26T22:39:43.000Z</time>
      </trkpt>
      <trkpt lat="43.62116" lon="0.76889">
        <ele>153</ele>
        <time>2020-12-26T22:39:48.000Z</time>
      </trkpt>
      <trkpt lat="43.62234" lon="0.76843">
        <ele>156</ele>
        <time>2020-12-26T22:40:10.000Z</time>
      </trkpt>
      <trkpt lat="43.62405" lon="0.76788">
        <ele>159</ele>
        <time>2020-12-26T22:40:41.000Z</time>
      </trkpt>
      <trkpt lat="43.62438" lon="0.76783">
        <ele>160</ele>
        <time>2020-12-26T22:40:47.000Z</time>
      </trkpt>
      <trkpt lat="43.62466" lon="0.76794">
        <ele>160</ele>
        <time>2020-12-26T22:40:52.000Z</time>
      </trkpt>
      <trkpt lat="43.62491" lon="0.76813">
        <ele>160</ele>
        <time>2020-12-26T22:40:57.000Z</time>
      </trkpt>
      <trkpt lat="43.62526" lon="0.76855">
        <ele>159</ele>
        <time>2020-12-26T22:41:05.000Z</time>
      </trkpt>
      <trkpt lat="43.62582" lon="0.76944">
        <ele>158</ele>
        <time>2020-12-26T22:41:21.000Z</time>
      </trkpt>
      <trkpt lat="43.62671" lon="0.77043">
        <ele>157</ele>
        <time>2020-12-26T22:41:41.000Z</time>
      </trkpt>
      <trkpt lat="43.62707" lon="0.77076">
        <ele>157</ele>
        <time>2020-12-26T22:41:49.000Z</time>
      </trkpt>
      <trkpt lat="43.62826" lon="0.77132">
        <ele>159</ele>
        <time>2020-12-26T22:42:11.000Z</time>
      </trkpt>
      <trkpt lat="43.62884" lon="0.77172">
        <ele>158</ele>
        <time>2020-12-26T22:42:23.000Z</time>
      </trkpt>
      <trkpt lat="43.6293" lon="0.77222">
        <ele>156</ele>
        <time>2020-12-26T22:42:33.000Z</time>
      </trkpt>
      <trkpt lat="43.62938" lon="0.77237">
        <ele>155</ele>
        <time>2020-12-26T22:42:35.000Z</time>
      </trkpt>
      <trkpt lat="43.62948" lon="0.77268">
        <ele>154</ele>
        <time>2020-12-26T22:42:40.000Z</time>
      </trkpt>
      <trkpt lat="43.62956" lon="0.77283">
        <ele>154</ele>
        <time>2020-12-26T22:42:42.000Z</time>
      </trkpt>
      <trkpt lat="43.6297" lon="0.77296">
        <ele>154</ele>
        <time>2020-12-26T22:42:45.000Z</time>
      </trkpt>
      <trkpt lat="43.63005" lon="0.77316">
        <ele>154</ele>
        <time>2020-12-26T22:42:52.000Z</time>
      </trkpt>
      <trkpt lat="43.63081" lon="0.77353">
        <ele>155</ele>
        <time>2020-12-26T22:43:06.000Z</time>
      </trkpt>
      <trkpt lat="43.63106" lon="0.77357">
        <ele>155</ele>
        <time>2020-12-26T22:43:11.000Z</time>
      </trkpt>
      <trkpt lat="43.63166" lon="0.77374">
        <ele>156</ele>
        <time>2020-12-26T22:43:22.000Z</time>
      </trkpt>
      <trkpt lat="43.63278" lon="0.77395">
        <ele>156</ele>
        <time>2020-12-26T22:43:42.000Z</time>
      </trkpt>
      <trkpt lat="43.63345" lon="0.77412">
        <ele>155</ele>
        <time>2020-12-26T22:43:54.000Z</time>
      </trkpt>
      <trkpt lat="43.63677" lon="0.77553">
        <ele>150</ele>
        <time>2020-12-26T22:44:56.000Z</time>
      </trkpt>
      <trkpt lat="43.63751" lon="0.77564">
        <ele>150</ele>
        <time>2020-12-26T22:45:09.000Z</time>
      </trkpt>
      <trkpt lat="43.64042" lon="0.77547">
        <ele>148</ele>
        <time>2020-12-26T22:46:01.000Z</time>
      </trkpt>
      <trkpt lat="43.64098" lon="0.77549">
        <ele>148</ele>
        <time>2020-12-26T22:46:11.000Z</time>
      </trkpt>
      <trkpt lat="43.64571" lon="0.77644">
        <ele>147</ele>
        <time>2020-12-26T22:47:36.000Z</time>
      </trkpt>
      <trkpt lat="43.64583" lon="0.77639">
        <ele>148</ele>
        <time>2020-12-26T22:47:38.000Z</time>
      </trkpt>
      <trkpt lat="43.64622" lon="0.77596">
        <ele>148</ele>
        <time>2020-12-26T22:47:47.000Z</time>
      </trkpt>
      <trkpt lat="43.64638" lon="0.77585">
        <ele>148</ele>
        <time>2020-12-26T22:47:50.000Z</time>
      </trkpt>
      <trkpt lat="43.64651" lon="0.77579">
        <ele>148</ele>
        <time>2020-12-26T22:47:52.000Z</time>
      </trkpt>
      <trkpt lat="43.64647" lon="0.77692">
        <ele>148</ele>
        <time>2020-12-26T22:48:07.000Z</time>
      </trkpt>
      <trkpt lat="43.64622" lon="0.78077">
        <ele>154</ele>
        <time>2020-12-26T22:48:57.000Z</time>
      </trkpt>
      <trkpt lat="43.64627" lon="0.78114">
        <ele>157</ele>
        <time>2020-12-26T22:49:02.000Z</time>
      </trkpt>
      <trkpt lat="43.64647" lon="0.78133">
        <ele>160</ele>
        <time>2020-12-26T22:49:06.000Z</time>
      </trkpt>
      <trkpt lat="43.64696" lon="0.78146">
        <ele>162</ele>
        <time>2020-12-26T22:49:15.000Z</time>
      </trkpt>
      <trkpt lat="43.64715" lon="0.78121">
        <ele>159</ele>
        <time>2020-12-26T22:49:19.000Z</time>
      </trkpt>
      <trkpt lat="43.64736" lon="0.78114">
        <ele>158</ele>
        <time>2020-12-26T22:49:23.000Z</time>
      </trkpt>
      <trkpt lat="43.64961" lon="0.7807">
        <ele>152</ele>
        <time>2020-12-26T22:50:04.000Z</time>
      </trkpt>
      <trkpt lat="43.65019" lon="0.78066">
        <ele>152</ele>
        <time>2020-12-26T22:50:14.000Z</time>
      </trkpt>
      <trkpt lat="43.65092" lon="0.78077">
        <ele>151</ele>
        <time>2020-12-26T22:50:27.000Z</time>
      </trkpt>
      <trkpt lat="43.65159" lon="0.78103">
        <ele>151</ele>
        <time>2020-12-26T22:50:39.000Z</time>
      </trkpt>
      <trkpt lat="43.653" lon="0.78162">
        <ele>149</ele>
        <time>2020-12-26T22:51:06.000Z</time>
      </trkpt>
      <trkpt lat="43.65327" lon="0.78179">
        <ele>150</ele>
        <time>2020-12-26T22:51:11.000Z</time>
      </trkpt>
      <trkpt lat="43.65377" lon="0.78227">
        <ele>152</ele>
        <time>2020-12-26T22:51:22.000Z</time>
      </trkpt>
      <trkpt lat="43.65371" lon="0.7825">
        <ele>154</ele>
        <time>2020-12-26T22:51:25.000Z</time>
      </trkpt>
      <trkpt lat="43.65377" lon="0.78266">
        <ele>155</ele>
        <time>2020-12-26T22:51:27.000Z</time>
      </trkpt>
      <trkpt lat="43.65386" lon="0.78273">
        <ele>155</ele>
        <time>2020-12-26T22:51:29.000Z</time>
      </trkpt>
      <trkpt lat="43.65399" lon="0.78272">
        <ele>154</ele>
        <time>2020-12-26T22:51:31.000Z</time>
      </trkpt>
      <trkpt lat="43.65408" lon="0.78261">
        <ele>152</ele>
        <time>2020-12-26T22:51:34.000Z</time>
      </trkpt>
      <trkpt lat="43.65477" lon="0.78339">
        <ele>155</ele>
        <time>2020-12-26T22:51:49.000Z</time>
      </trkpt>
      <trkpt lat="43.65555" lon="0.78422">
        <ele>152</ele>
        <time>2020-12-26T22:52:07.000Z</time>
      </trkpt>
      <trkpt lat="43.65581" lon="0.78454">
        <ele>150</ele>
        <time>2020-12-26T22:52:13.000Z</time>
      </trkpt>
      <trkpt lat="43.65633" lon="0.78507">
        <ele>148</ele>
        <time>2020-12-26T22:52:25.000Z</time>
      </trkpt>
      <trkpt lat="43.6572" lon="0.78562">
        <ele>147</ele>
        <time>2020-12-26T22:52:42.000Z</time>
      </trkpt>
      <trkpt lat="43.6587" lon="0.78645">
        <ele>154</ele>
        <time>2020-12-26T22:53:10.000Z</time>
      </trkpt>
      <trkpt lat="43.65904" lon="0.78674">
        <ele>156</ele>
        <time>2020-12-26T22:53:18.000Z</time>
      </trkpt>
      <trkpt lat="43.66007" lon="0.78791">
        <ele>155</ele>
        <time>2020-12-26T22:53:41.000Z</time>
      </trkpt>
      <trkpt lat="43.66149" lon="0.79022">
        <ele>153</ele>
        <time>2020-12-26T22:54:20.000Z</time>
      </trkpt>
      <trkpt lat="43.66292" lon="0.79296">
        <ele>153</ele>
        <time>2020-12-26T22:55:04.000Z</time>
      </trkpt>
      <trkpt lat="43.66364" lon="0.79454">
        <ele>150</ele>
        <time>2020-12-26T22:55:28.000Z</time>
      </trkpt>
      <trkpt lat="43.6641" lon="0.79609">
        <ele>152</ele>
        <time>2020-12-26T22:55:49.000Z</time>
      </trkpt>
      <trkpt lat="43.66439" lon="0.79664">
        <ele>150</ele>
        <time>2020-12-26T22:55:58.000Z</time>
      </trkpt>
      <trkpt lat="43.66494" lon="0.79746">
        <ele>149</ele>
        <time>2020-12-26T22:56:13.000Z</time>
      </trkpt>
      <trkpt lat="43.66521" lon="0.79774">
        <ele>150</ele>
        <time>2020-12-26T22:56:19.000Z</time>
      </trkpt>
      <trkpt lat="43.66559" lon="0.79799">
        <ele>151</ele>
        <time>2020-12-26T22:56:26.000Z</time>
      </trkpt>
      <trkpt lat="43.66694" lon="0.79877">
        <ele>152</ele>
        <time>2020-12-26T22:56:52.000Z</time>
      </trkpt>
      <trkpt lat="43.66714" lon="0.79899">
        <ele>151</ele>
        <time>2020-12-26T22:56:57.000Z</time>
      </trkpt>
      <trkpt lat="43.67025" lon="0.8034">
        <ele>153</ele>
        <time>2020-12-26T22:58:16.000Z</time>
      </trkpt>
      <trkpt lat="43.67088" lon="0.80417">
        <ele>154</ele>
        <time>2020-12-26T22:58:31.000Z</time>
      </trkpt>
      <trkpt lat="43.67118" lon="0.80439">
        <ele>152</ele>
        <time>2020-12-26T22:58:37.000Z</time>
      </trkpt>
      <trkpt lat="43.67293" lon="0.80588">
        <ele>149</ele>
        <time>2020-12-26T22:59:13.000Z</time>
      </trkpt>
      <trkpt lat="43.67329" lon="0.80626">
        <ele>151</ele>
        <time>2020-12-26T22:59:21.000Z</time>
      </trkpt>
      <trkpt lat="43.67361" lon="0.80692">
        <ele>153</ele>
        <time>2020-12-26T22:59:32.000Z</time>
      </trkpt>
      <trkpt lat="43.67412" lon="0.80862">
        <ele>155</ele>
        <time>2020-12-26T22:59:55.000Z</time>
      </trkpt>
      <trkpt lat="43.67425" lon="0.80895">
        <ele>155</ele>
        <time>2020-12-26T23:00:00.000Z</time>
      </trkpt>
      <trkpt lat="43.67435" lon="0.80916">
        <ele>155</ele>
        <time>2020-12-26T23:00:03.000Z</time>
      </trkpt>
      <trkpt lat="43.67548" lon="0.81079">
        <ele>159</ele>
        <time>2020-12-26T23:00:33.000Z</time>
      </trkpt>
      <trkpt lat="43.67663" lon="0.81283">
        <ele>156</ele>
        <time>2020-12-26T23:01:06.000Z</time>
      </trkpt>
      <trkpt lat="43.67695" lon="0.81334">
        <ele>156</ele>
        <time>2020-12-26T23:01:14.000Z</time>
      </trkpt>
      <trkpt lat="43.67784" lon="0.81444">
        <ele>153</ele>
        <time>2020-12-26T23:01:36.000Z</time>
      </trkpt>
      <trkpt lat="43.67824" lon="0.81497">
        <ele>152</ele>
        <time>2020-12-26T23:01:46.000Z</time>
      </trkpt>
      <trkpt lat="43.67861" lon="0.81562">
        <ele>151</ele>
        <time>2020-12-26T23:01:56.000Z</time>
      </trkpt>
      <trkpt lat="43.67898" lon="0.81622">
        <ele>149</ele>
        <time>2020-12-26T23:02:06.000Z</time>
      </trkpt>
      <trkpt lat="43.6793" lon="0.81703">
        <ele>147</ele>
        <time>2020-12-26T23:02:18.000Z</time>
      </trkpt>
      <trkpt lat="43.67983" lon="0.81787">
        <ele>144</ele>
        <time>2020-12-26T23:02:33.000Z</time>
      </trkpt>
      <trkpt lat="43.68022" lon="0.8184">
        <ele>143</ele>
        <time>2020-12-26T23:02:42.000Z</time>
      </trkpt>
      <trkpt lat="43.68077" lon="0.819">
        <ele>143</ele>
        <time>2020-12-26T23:02:55.000Z</time>
      </trkpt>
      <trkpt lat="43.68109" lon="0.81928">
        <ele>143</ele>
        <time>2020-12-26T23:03:02.000Z</time>
      </trkpt>
      <trkpt lat="43.68143" lon="0.81952">
        <ele>143</ele>
        <time>2020-12-26T23:03:08.000Z</time>
      </trkpt>
      <trkpt lat="43.68545" lon="0.82165">
        <ele>139</ele>
        <time>2020-12-26T23:04:25.000Z</time>
      </trkpt>
      <trkpt lat="43.68646" lon="0.82223">
        <ele>143</ele>
        <time>2020-12-26T23:04:44.000Z</time>
      </trkpt>
      <trkpt lat="43.68682" lon="0.82251">
        <ele>143</ele>
        <time>2020-12-26T23:04:52.000Z</time>
      </trkpt>
      <trkpt lat="43.68752" lon="0.82317">
        <ele>140</ele>
        <time>2020-12-26T23:05:07.000Z</time>
      </trkpt>
      <trkpt lat="43.68804" lon="0.82378">
        <ele>142</ele>
        <time>2020-12-26T23:05:19.000Z</time>
      </trkpt>
      <trkpt lat="43.68851" lon="0.82454">
        <ele>142</ele>
        <time>2020-12-26T23:05:32.000Z</time>
      </trkpt>
      <trkpt lat="43.68933" lon="0.8259">
        <ele>143</ele>
        <time>2020-12-26T23:05:55.000Z</time>
      </trkpt>
      <trkpt lat="43.69105" lon="0.82887">
        <ele>139</ele>
        <time>2020-12-26T23:06:44.000Z</time>
      </trkpt>
      <trkpt lat="43.69113" lon="0.82903">
        <ele>140</ele>
        <time>2020-12-26T23:06:46.000Z</time>
      </trkpt>
      <trkpt lat="43.69143" lon="0.8297">
        <ele>139</ele>
        <time>2020-12-26T23:06:56.000Z</time>
      </trkpt>
      <trkpt lat="43.69167" lon="0.83053">
        <ele>137</ele>
        <time>2020-12-26T23:07:08.000Z</time>
      </trkpt>
      <trkpt lat="43.69202" lon="0.83268">
        <ele>138</ele>
        <time>2020-12-26T23:07:36.000Z</time>
      </trkpt>
      <trkpt lat="43.69221" lon="0.83327">
        <ele>139</ele>
        <time>2020-12-26T23:07:44.000Z</time>
      </trkpt>
      <trkpt lat="43.6926" lon="0.83385">
        <ele>142</ele>
        <time>2020-12-26T23:07:55.000Z</time>
      </trkpt>
      <trkpt lat="43.69315" lon="0.83425">
        <ele>146</ele>
        <time>2020-12-26T23:08:06.000Z</time>
      </trkpt>
      <trkpt lat="43.6938" lon="0.83457">
        <ele>147</ele>
        <time>2020-12-26T23:08:18.000Z</time>
      </trkpt>
      <trkpt lat="43.69435" lon="0.83487">
        <ele>149</ele>
        <time>2020-12-26T23:08:28.000Z</time>
      </trkpt>
      <trkpt lat="43.69479" lon="0.83534">
        <ele>149</ele>
        <time>2020-12-26T23:08:38.000Z</time>
      </trkpt>
      <trkpt lat="43.69557" lon="0.83673">
        <ele>150</ele>
        <time>2020-12-26T23:09:01.000Z</time>
      </trkpt>
      <trkpt lat="43.69611" lon="0.83793">
        <ele>150</ele>
        <time>2020-12-26T23:09:19.000Z</time>
      </trkpt>
      <trkpt lat="43.697" lon="0.84066">
        <ele>147</ele>
        <time>2020-12-26T23:09:58.000Z</time>
      </trkpt>
      <trkpt lat="43.6987" lon="0.84615">
        <ele>140</ele>
        <time>2020-12-26T23:11:14.000Z</time>
      </trkpt>
      <trkpt lat="43.69903" lon="0.84672">
        <ele>137</ele>
        <time>2020-12-26T23:11:24.000Z</time>
      </trkpt>
      <trkpt lat="43.69947" lon="0.84736">
        <ele>138</ele>
        <time>2020-12-26T23:11:35.000Z</time>
      </trkpt>
      <trkpt lat="43.69982" lon="0.84773">
        <ele>138</ele>
        <time>2020-12-26T23:11:43.000Z</time>
      </trkpt>
      <trkpt lat="43.7005" lon="0.84834">
        <ele>137</ele>
        <time>2020-12-26T23:11:57.000Z</time>
      </trkpt>
      <trkpt lat="43.70163" lon="0.8494">
        <ele>140</ele>
        <time>2020-12-26T23:12:22.000Z</time>
      </trkpt>
      <trkpt lat="43.70201" lon="0.84967">
        <ele>139</ele>
        <time>2020-12-26T23:12:29.000Z</time>
      </trkpt>
      <trkpt lat="43.70375" lon="0.85061">
        <ele>135</ele>
        <time>2020-12-26T23:13:03.000Z</time>
      </trkpt>
      <trkpt lat="43.70434" lon="0.85086">
        <ele>134</ele>
        <time>2020-12-26T23:13:14.000Z</time>
      </trkpt>
      <trkpt lat="43.70478" lon="0.85116">
        <ele>134</ele>
        <time>2020-12-26T23:13:22.000Z</time>
      </trkpt>
      <trkpt lat="43.7058" lon="0.85179">
        <ele>133</ele>
        <time>2020-12-26T23:13:42.000Z</time>
      </trkpt>
      <trkpt lat="43.70642" lon="0.85222">
        <ele>137</ele>
        <time>2020-12-26T23:13:55.000Z</time>
      </trkpt>
      <trkpt lat="43.70732" lon="0.85293">
        <ele>136</ele>
        <time>2020-12-26T23:14:13.000Z</time>
      </trkpt>
      <trkpt lat="43.70791" lon="0.8535">
        <ele>136</ele>
        <time>2020-12-26T23:14:26.000Z</time>
      </trkpt>
      <trkpt lat="43.70823" lon="0.85389">
        <ele>135</ele>
        <time>2020-12-26T23:14:33.000Z</time>
      </trkpt>
      <trkpt lat="43.70864" lon="0.85476">
        <ele>134</ele>
        <time>2020-12-26T23:14:47.000Z</time>
      </trkpt>
      <trkpt lat="43.70992" lon="0.85814">
        <ele>132</ele>
        <time>2020-12-26T23:15:36.000Z</time>
      </trkpt>
      <trkpt lat="43.71031" lon="0.85897">
        <ele>131</ele>
        <time>2020-12-26T23:15:49.000Z</time>
      </trkpt>
      <trkpt lat="43.71045" lon="0.85919">
        <ele>131</ele>
        <time>2020-12-26T23:15:52.000Z</time>
      </trkpt>
      <trkpt lat="43.71172" lon="0.86062">
        <ele>131</ele>
        <time>2020-12-26T23:16:21.000Z</time>
      </trkpt>
      <trkpt lat="43.71211" lon="0.86109">
        <ele>132</ele>
        <time>2020-12-26T23:16:31.000Z</time>
      </trkpt>
      <trkpt lat="43.71231" lon="0.86139">
        <ele>132</ele>
        <time>2020-12-26T23:16:36.000Z</time>
      </trkpt>
      <trkpt lat="43.71273" lon="0.86213">
        <ele>131</ele>
        <time>2020-12-26T23:16:48.000Z</time>
      </trkpt>
      <trkpt lat="43.71305" lon="0.86261">
        <ele>129</ele>
        <time>2020-12-26T23:16:56.000Z</time>
      </trkpt>
      <trkpt lat="43.7134" lon="0.86308">
        <ele>129</ele>
        <time>2020-12-26T23:17:05.000Z</time>
      </trkpt>
      <trkpt lat="43.71371" lon="0.8634">
        <ele>130</ele>
        <time>2020-12-26T23:17:12.000Z</time>
      </trkpt>
      <trkpt lat="43.71571" lon="0.86577">
        <ele>131</ele>
        <time>2020-12-26T23:17:59.000Z</time>
      </trkpt>
      <trkpt lat="43.71611" lon="0.86609">
        <ele>131</ele>
        <time>2020-12-26T23:18:07.000Z</time>
      </trkpt>
      <trkpt lat="43.71724" lon="0.86688">
        <ele>131</ele>
        <time>2020-12-26T23:18:30.000Z</time>
      </trkpt>
      <trkpt lat="43.71817" lon="0.86778">
        <ele>130</ele>
        <time>2020-12-26T23:18:50.000Z</time>
      </trkpt>
      <trkpt lat="43.71935" lon="0.86877">
        <ele>129</ele>
        <time>2020-12-26T23:19:14.000Z</time>
      </trkpt>
      <trkpt lat="43.72071" lon="0.86996">
        <ele>129</ele>
        <time>2020-12-26T23:19:43.000Z</time>
      </trkpt>
      <trkpt lat="43.72125" lon="0.87065">
        <ele>130</ele>
        <time>2020-12-26T23:19:56.000Z</time>
      </trkpt>
      <trkpt lat="43.72174" lon="0.87145">
        <ele>131</ele>
        <time>2020-12-26T23:20:09.000Z</time>
      </trkpt>
      <trkpt lat="43.72431" lon="0.87363">
        <ele>134</ele>
        <time>2020-12-26T23:21:03.000Z</time>
      </trkpt>
      <trkpt lat="43.72475" lon="0.87409">
        <ele>135</ele>
        <time>2020-12-26T23:21:13.000Z</time>
      </trkpt>
      <trkpt lat="43.72663" lon="0.87626">
        <ele>140</ele>
        <time>2020-12-26T23:21:56.000Z</time>
      </trkpt>
      <trkpt lat="43.7278" lon="0.87766">
        <ele>148</ele>
        <time>2020-12-26T23:22:24.000Z</time>
      </trkpt>
      <trkpt lat="43.72787" lon="0.87777">
        <ele>149</ele>
        <time>2020-12-26T23:22:26.000Z</time>
      </trkpt>
      <trkpt lat="43.72803" lon="0.8779">
        <ele>150</ele>
        <time>2020-12-26T23:22:29.000Z</time>
      </trkpt>
      <trkpt lat="43.72813" lon="0.87796">
        <ele>150</ele>
        <time>2020-12-26T23:22:31.000Z</time>
      </trkpt>
      <trkpt lat="43.72838" lon="0.87795">
        <ele>151</ele>
        <time>2020-12-26T23:22:36.000Z</time>
      </trkpt>
      <trkpt lat="43.72863" lon="0.8778">
        <ele>151</ele>
        <time>2020-12-26T23:22:40.000Z</time>
      </trkpt>
      <trkpt lat="43.72908" lon="0.87749">
        <ele>151</ele>
        <time>2020-12-26T23:22:49.000Z</time>
      </trkpt>
      <trkpt lat="43.72924" lon="0.87744">
        <ele>152</ele>
        <time>2020-12-26T23:22:52.000Z</time>
      </trkpt>
      <trkpt lat="43.72944" lon="0.87744">
        <ele>153</ele>
        <time>2020-12-26T23:22:56.000Z</time>
      </trkpt>
      <trkpt lat="43.72955" lon="0.87746">
        <ele>154</ele>
        <time>2020-12-26T23:22:58.000Z</time>
      </trkpt>
      <trkpt lat="43.72984" lon="0.87754">
        <ele>157</ele>
        <time>2020-12-26T23:23:03.000Z</time>
      </trkpt>
      <trkpt lat="43.72994" lon="0.87758">
        <ele>158</ele>
        <time>2020-12-26T23:23:05.000Z</time>
      </trkpt>
      <trkpt lat="43.73029" lon="0.87803">
        <ele>159</ele>
        <time>2020-12-26T23:23:13.000Z</time>
      </trkpt>
      <trkpt lat="43.73061" lon="0.87838">
        <ele>160</ele>
        <time>2020-12-26T23:23:21.000Z</time>
      </trkpt>
      <trkpt lat="43.73083" lon="0.87867">
        <ele>160</ele>
        <time>2020-12-26T23:23:26.000Z</time>
      </trkpt>
      <trkpt lat="43.73129" lon="0.87904">
        <ele>160</ele>
        <time>2020-12-26T23:23:36.000Z</time>
      </trkpt>
      <trkpt lat="43.73164" lon="0.87936">
        <ele>160</ele>
        <time>2020-12-26T23:23:43.000Z</time>
      </trkpt>
      <trkpt lat="43.73335" lon="0.88073">
        <ele>159</ele>
        <time>2020-12-26T23:24:18.000Z</time>
      </trkpt>
      <trkpt lat="43.73638" lon="0.88314">
        <ele>176</ele>
        <time>2020-12-26T23:25:20.000Z</time>
      </trkpt>
      <trkpt lat="43.73756" lon="0.8841">
        <ele>177</ele>
        <time>2020-12-26T23:25:45.000Z</time>
      </trkpt>
      <trkpt lat="43.73847" lon="0.88478">
        <ele>175</ele>
        <time>2020-12-26T23:26:03.000Z</time>
      </trkpt>
      <trkpt lat="43.73883" lon="0.88491">
        <ele>176</ele>
        <time>2020-12-26T23:26:10.000Z</time>
      </trkpt>
      <trkpt lat="43.73894" lon="0.88493">
        <ele>176</ele>
        <time>2020-12-26T23:26:12.000Z</time>
      </trkpt>
      <trkpt lat="43.73915" lon="0.88494">
        <ele>176</ele>
        <time>2020-12-26T23:26:15.000Z</time>
      </trkpt>
      <trkpt lat="43.73954" lon="0.88492">
        <ele>175</ele>
        <time>2020-12-26T23:26:22.000Z</time>
      </trkpt>
      <trkpt lat="43.74066" lon="0.88471">
        <ele>174</ele>
        <time>2020-12-26T23:26:43.000Z</time>
      </trkpt>
      <trkpt lat="43.7418" lon="0.88435">
        <ele>172</ele>
        <time>2020-12-26T23:27:03.000Z</time>
      </trkpt>
      <trkpt lat="43.7466" lon="0.88253">
        <ele>173</ele>
        <time>2020-12-26T23:28:32.000Z</time>
      </trkpt>
      <trkpt lat="43.74701" lon="0.88245">
        <ele>173</ele>
        <time>2020-12-26T23:28:39.000Z</time>
      </trkpt>
      <trkpt lat="43.74742" lon="0.88251">
        <ele>173</ele>
        <time>2020-12-26T23:28:47.000Z</time>
      </trkpt>
      <trkpt lat="43.74981" lon="0.88336">
        <ele>172</ele>
        <time>2020-12-26T23:29:30.000Z</time>
      </trkpt>
      <trkpt lat="43.75032" lon="0.88345">
        <ele>174</ele>
        <time>2020-12-26T23:29:40.000Z</time>
      </trkpt>
      <trkpt lat="43.75517" lon="0.88289">
        <ele>180</ele>
        <time>2020-12-26T23:31:06.000Z</time>
      </trkpt>
      <trkpt lat="43.75934" lon="0.88352">
        <ele>174</ele>
        <time>2020-12-26T23:32:21.000Z</time>
      </trkpt>
      <trkpt lat="43.75959" lon="0.88357">
        <ele>173</ele>
        <time>2020-12-26T23:32:25.000Z</time>
      </trkpt>
      <trkpt lat="43.76032" lon="0.88363">
        <ele>171</ele>
        <time>2020-12-26T23:32:38.000Z</time>
      </trkpt>
      <trkpt lat="43.76102" lon="0.88363">
        <ele>170</ele>
        <time>2020-12-26T23:32:51.000Z</time>
      </trkpt>
      <trkpt lat="43.76205" lon="0.88375">
        <ele>170</ele>
        <time>2020-12-26T23:33:09.000Z</time>
      </trkpt>
      <trkpt lat="43.76595" lon="0.8844">
        <ele>169</ele>
        <time>2020-12-26T23:34:19.000Z</time>
      </trkpt>
      <trkpt lat="43.76766" lon="0.88448">
        <ele>171</ele>
        <time>2020-12-26T23:34:50.000Z</time>
      </trkpt>
      <trkpt lat="43.7708" lon="0.8849">
        <ele>159</ele>
        <time>2020-12-26T23:35:46.000Z</time>
      </trkpt>
      <trkpt lat="43.77155" lon="0.88504">
        <ele>158</ele>
        <time>2020-12-26T23:35:59.000Z</time>
      </trkpt>
      <trkpt lat="43.77564" lon="0.88623">
        <ele>138</ele>
        <time>2020-12-26T23:37:14.000Z</time>
      </trkpt>
      <trkpt lat="43.77603" lon="0.88632">
        <ele>138</ele>
        <time>2020-12-26T23:37:21.000Z</time>
      </trkpt>
      <trkpt lat="43.7764" lon="0.88645">
        <ele>139</ele>
        <time>2020-12-26T23:37:27.000Z</time>
      </trkpt>
      <trkpt lat="43.77814" lon="0.88689">
        <ele>134</ele>
        <time>2020-12-26T23:37:59.000Z</time>
      </trkpt>
      <trkpt lat="43.77861" lon="0.88712">
        <ele>132</ele>
        <time>2020-12-26T23:38:08.000Z</time>
      </trkpt>
      <trkpt lat="43.77954" lon="0.8877">
        <ele>130</ele>
        <time>2020-12-26T23:38:26.000Z</time>
      </trkpt>
      <trkpt lat="43.78694" lon="0.89241">
        <ele>125</ele>
        <time>2020-12-26T23:40:51.000Z</time>
      </trkpt>
      <trkpt lat="43.78894" lon="0.89373">
        <ele>121</ele>
        <time>2020-12-26T23:41:30.000Z</time>
      </trkpt>
      <trkpt lat="43.78935" lon="0.89394">
        <ele>121</ele>
        <time>2020-12-26T23:41:38.000Z</time>
      </trkpt>
      <trkpt lat="43.78994" lon="0.89412">
        <ele>121</ele>
        <time>2020-12-26T23:41:49.000Z</time>
      </trkpt>
      <trkpt lat="43.79048" lon="0.89421">
        <ele>120</ele>
        <time>2020-12-26T23:41:58.000Z</time>
      </trkpt>
      <trkpt lat="43.79619" lon="0.89437">
        <ele>121</ele>
        <time>2020-12-26T23:43:40.000Z</time>
      </trkpt>
      <trkpt lat="43.79665" lon="0.89435">
        <ele>122</ele>
        <time>2020-12-26T23:43:48.000Z</time>
      </trkpt>
      <trkpt lat="43.79763" lon="0.89425">
        <ele>123</ele>
        <time>2020-12-26T23:44:06.000Z</time>
      </trkpt>
      <trkpt lat="43.79825" lon="0.89429">
        <ele>125</ele>
        <time>2020-12-26T23:44:17.000Z</time>
      </trkpt>
      <trkpt lat="43.79891" lon="0.89446">
        <ele>127</ele>
        <time>2020-12-26T23:44:29.000Z</time>
      </trkpt>
      <trkpt lat="43.80009" lon="0.89487">
        <ele>128</ele>
        <time>2020-12-26T23:44:50.000Z</time>
      </trkpt>
      <trkpt lat="43.80058" lon="0.89507">
        <ele>127</ele>
        <time>2020-12-26T23:44:59.000Z</time>
      </trkpt>
      <trkpt lat="43.80279" lon="0.89628">
        <ele>124</ele>
        <time>2020-12-26T23:45:42.000Z</time>
      </trkpt>
      <trkpt lat="43.80463" lon="0.89725">
        <ele>125</ele>
        <time>2020-12-26T23:46:17.000Z</time>
      </trkpt>
      <trkpt lat="43.80515" lon="0.89756">
        <ele>125</ele>
        <time>2020-12-26T23:46:27.000Z</time>
      </trkpt>
      <trkpt lat="43.80567" lon="0.89783">
        <ele>123</ele>
        <time>2020-12-26T23:46:37.000Z</time>
      </trkpt>
      <trkpt lat="43.80613" lon="0.89811">
        <ele>123</ele>
        <time>2020-12-26T23:46:46.000Z</time>
      </trkpt>
      <trkpt lat="43.80667" lon="0.89857">
        <ele>123</ele>
        <time>2020-12-26T23:46:57.000Z</time>
      </trkpt>
      <trkpt lat="43.81238" lon="0.90309">
        <ele>118</ele>
        <time>2020-12-26T23:48:54.000Z</time>
      </trkpt>
      <trkpt lat="43.81379" lon="0.90418">
        <ele>121</ele>
        <time>2020-12-26T23:49:23.000Z</time>
      </trkpt>
      <trkpt lat="43.81505" lon="0.90551">
        <ele>122</ele>
        <time>2020-12-26T23:49:51.000Z</time>
      </trkpt>
      <trkpt lat="43.8167" lon="0.90701">
        <ele>119</ele>
        <time>2020-12-26T23:50:26.000Z</time>
      </trkpt>
      <trkpt lat="43.8186" lon="0.90891">
        <ele>119</ele>
        <time>2020-12-26T23:51:08.000Z</time>
      </trkpt>
      <trkpt lat="43.8238" lon="0.91432">
        <ele>118</ele>
        <time>2020-12-26T23:53:03.000Z</time>
      </trkpt>
      <trkpt lat="43.82842" lon="0.91916">
        <ele>116</ele>
        <time>2020-12-26T23:54:46.000Z</time>
      </trkpt>
      <trkpt lat="43.82891" lon="0.91971">
        <ele>116</ele>
        <time>2020-12-26T23:54:58.000Z</time>
      </trkpt>
      <trkpt lat="43.82971" lon="0.92051">
        <ele>113</ele>
        <time>2020-12-26T23:55:15.000Z</time>
      </trkpt>
      <trkpt lat="43.83011" lon="0.92095">
        <ele>112</ele>
        <time>2020-12-26T23:55:24.000Z</time>
      </trkpt>
      <trkpt lat="43.83057" lon="0.92132">
        <ele>114</ele>
        <time>2020-12-26T23:55:34.000Z</time>
      </trkpt>
      <trkpt lat="43.83131" lon="0.92186">
        <ele>114</ele>
        <time>2020-12-26T23:55:48.000Z</time>
      </trkpt>
      <trkpt lat="43.83926" lon="0.92745">
        <ele>115</ele>
        <time>2020-12-26T23:58:27.000Z</time>
      </trkpt>
      <trkpt lat="43.84218" lon="0.92948">
        <ele>118</ele>
        <time>2020-12-26T23:59:25.000Z</time>
      </trkpt>
      <trkpt lat="43.84313" lon="0.93017">
        <ele>115</ele>
        <time>2020-12-26T23:59:44.000Z</time>
      </trkpt>
      <trkpt lat="43.844" lon="0.93107">
        <ele>113</ele>
        <time>2020-12-27T00:00:04.000Z</time>
      </trkpt>
      <trkpt lat="43.84466" lon="0.93182">
        <ele>112</ele>
        <time>2020-12-27T00:00:19.000Z</time>
      </trkpt>
      <trkpt lat="43.84498" lon="0.9322">
        <ele>112</ele>
        <time>2020-12-27T00:00:26.000Z</time>
      </trkpt>
      <trkpt lat="43.84523" lon="0.93262">
        <ele>112</ele>
        <time>2020-12-27T00:00:33.000Z</time>
      </trkpt>
      <trkpt lat="43.84547" lon="0.93304">
        <ele>112</ele>
        <time>2020-12-27T00:00:40.000Z</time>
      </trkpt>
      <trkpt lat="43.84779" lon="0.93744">
        <ele>116</ele>
        <time>2020-12-27T00:01:50.000Z</time>
      </trkpt>
      <trkpt lat="43.84906" lon="0.9398">
        <ele>113</ele>
        <time>2020-12-27T00:02:28.000Z</time>
      </trkpt>
      <trkpt lat="43.84937" lon="0.94021">
        <ele>114</ele>
        <time>2020-12-27T00:02:36.000Z</time>
      </trkpt>
      <trkpt lat="43.84974" lon="0.94057">
        <ele>114</ele>
        <time>2020-12-27T00:02:44.000Z</time>
      </trkpt>
      <trkpt lat="43.85106" lon="0.94165">
        <ele>115</ele>
        <time>2020-12-27T00:03:11.000Z</time>
      </trkpt>
      <trkpt lat="43.85452" lon="0.94442">
        <ele>111</ele>
        <time>2020-12-27T00:04:22.000Z</time>
      </trkpt>
      <trkpt lat="43.85596" lon="0.94553">
        <ele>110</ele>
        <time>2020-12-27T00:04:51.000Z</time>
      </trkpt>
      <trkpt lat="43.85679" lon="0.94623">
        <ele>108</ele>
        <time>2020-12-27T00:05:08.000Z</time>
      </trkpt>
      <trkpt lat="43.85712" lon="0.94653">
        <ele>108</ele>
        <time>2020-12-27T00:05:16.000Z</time>
      </trkpt>
      <trkpt lat="43.85759" lon="0.94711">
        <ele>110</ele>
        <time>2020-12-27T00:05:27.000Z</time>
      </trkpt>
      <trkpt lat="43.85794" lon="0.94766">
        <ele>112</ele>
        <time>2020-12-27T00:05:36.000Z</time>
      </trkpt>
      <trkpt lat="43.85882" lon="0.94926">
        <ele>112</ele>
        <time>2020-12-27T00:06:02.000Z</time>
      </trkpt>
      <trkpt lat="43.8593" lon="0.94989">
        <ele>111</ele>
        <time>2020-12-27T00:06:14.000Z</time>
      </trkpt>
      <trkpt lat="43.85974" lon="0.95034">
        <ele>112</ele>
        <time>2020-12-27T00:06:23.000Z</time>
      </trkpt>
      <trkpt lat="43.86273" lon="0.95255">
        <ele>110</ele>
        <time>2020-12-27T00:07:24.000Z</time>
      </trkpt>
      <trkpt lat="43.86329" lon="0.95312">
        <ele>109</ele>
        <time>2020-12-27T00:07:36.000Z</time>
      </trkpt>
      <trkpt lat="43.86398" lon="0.95408">
        <ele>109</ele>
        <time>2020-12-27T00:07:53.000Z</time>
      </trkpt>
      <trkpt lat="43.86481" lon="0.95562">
        <ele>111</ele>
        <time>2020-12-27T00:08:18.000Z</time>
      </trkpt>
      <trkpt lat="43.86584" lon="0.95724">
        <ele>112</ele>
        <time>2020-12-27T00:08:46.000Z</time>
      </trkpt>
      <trkpt lat="43.86647" lon="0.95828">
        <ele>114</ele>
        <time>2020-12-27T00:09:03.000Z</time>
      </trkpt>
      <trkpt lat="43.86682" lon="0.95919">
        <ele>113</ele>
        <time>2020-12-27T00:09:16.000Z</time>
      </trkpt>
      <trkpt lat="43.86701" lon="0.95961">
        <ele>112</ele>
        <time>2020-12-27T00:09:23.000Z</time>
      </trkpt>
      <trkpt lat="43.8673" lon="0.96011">
        <ele>110</ele>
        <time>2020-12-27T00:09:31.000Z</time>
      </trkpt>
      <trkpt lat="43.86796" lon="0.96102">
        <ele>110</ele>
        <time>2020-12-27T00:09:48.000Z</time>
      </trkpt>
      <trkpt lat="43.87014" lon="0.96328">
        <ele>107</ele>
        <time>2020-12-27T00:10:36.000Z</time>
      </trkpt>
      <trkpt lat="43.87052" lon="0.96397">
        <ele>107</ele>
        <time>2020-12-27T00:10:47.000Z</time>
      </trkpt>
      <trkpt lat="43.87101" lon="0.96501">
        <ele>110</ele>
        <time>2020-12-27T00:11:03.000Z</time>
      </trkpt>
      <trkpt lat="43.87135" lon="0.96589">
        <ele>111</ele>
        <time>2020-12-27T00:11:16.000Z</time>
      </trkpt>
      <trkpt lat="43.87189" lon="0.96779">
        <ele>112</ele>
        <time>2020-12-27T00:11:42.000Z</time>
      </trkpt>
      <trkpt lat="43.87222" lon="0.96882">
        <ele>113</ele>
        <time>2020-12-27T00:11:57.000Z</time>
      </trkpt>
      <trkpt lat="43.87318" lon="0.97131">
        <ele>116</ele>
        <time>2020-12-27T00:12:33.000Z</time>
      </trkpt>
      <trkpt lat="43.87341" lon="0.97198">
        <ele>116</ele>
        <time>2020-12-27T00:12:42.000Z</time>
      </trkpt>
      <trkpt lat="43.87368" lon="0.97289">
        <ele>114</ele>
        <time>2020-12-27T00:12:55.000Z</time>
      </trkpt>
      <trkpt lat="43.87399" lon="0.97354">
        <ele>114</ele>
        <time>2020-12-27T00:13:05.000Z</time>
      </trkpt>
      <trkpt lat="43.87436" lon="0.97419">
        <ele>114</ele>
        <time>2020-12-27T00:13:16.000Z</time>
      </trkpt>
      <trkpt lat="43.87514" lon="0.97549">
        <ele>113</ele>
        <time>2020-12-27T00:13:37.000Z</time>
      </trkpt>
      <trkpt lat="43.8763" lon="0.97732">
        <ele>111</ele>
        <time>2020-12-27T00:14:09.000Z</time>
      </trkpt>
      <trkpt lat="43.87842" lon="0.9808">
        <ele>112</ele>
        <time>2020-12-27T00:15:07.000Z</time>
      </trkpt>
      <trkpt lat="43.87993" lon="0.98322">
        <ele>119</ele>
        <time>2020-12-27T00:15:48.000Z</time>
      </trkpt>
      <trkpt lat="43.88029" lon="0.98372">
        <ele>120</ele>
        <time>2020-12-27T00:15:57.000Z</time>
      </trkpt>
      <trkpt lat="43.88059" lon="0.98403">
        <ele>120</ele>
        <time>2020-12-27T00:16:04.000Z</time>
      </trkpt>
      <trkpt lat="43.88075" lon="0.98412">
        <ele>121</ele>
        <time>2020-12-27T00:16:07.000Z</time>
      </trkpt>
      <trkpt lat="43.88089" lon="0.98413">
        <ele>121</ele>
        <time>2020-12-27T00:16:09.000Z</time>
      </trkpt>
      <trkpt lat="43.88112" lon="0.98411">
        <ele>121</ele>
        <time>2020-12-27T00:16:13.000Z</time>
      </trkpt>
      <trkpt lat="43.8818" lon="0.98392">
        <ele>121</ele>
        <time>2020-12-27T00:16:26.000Z</time>
      </trkpt>
      <trkpt lat="43.88218" lon="0.98389">
        <ele>121</ele>
        <time>2020-12-27T00:16:33.000Z</time>
      </trkpt>
      <trkpt lat="43.88267" lon="0.98387">
        <ele>121</ele>
        <time>2020-12-27T00:16:41.000Z</time>
      </trkpt>
      <trkpt lat="43.88286" lon="0.98394">
        <ele>121</ele>
        <time>2020-12-27T00:16:45.000Z</time>
      </trkpt>
    </trkseg>
  </trk>
</gpx>